<?xml version='1.0' encoding='UTF-8'?><gpx version="1.1" creator="JPX - https://github.com/jenetics/jpx" xmlns="http://www.topografix.com/GPX/1/1"><trk><trkseg><trkpt lat="45.778483428766265" lon="8.736289967320559"><ele>311.0</ele><time>2026-04-22T15:19:59.985Z</time></trkpt><trkpt lat="45.77851220402941" lon="8.736377732553514"><ele>311.0</ele><time>2026-04-22T15:20:04.972Z</time></trkpt><trkpt lat="45.77855149535488" lon="8.736470894831712"><ele>311.0</ele><time>2026-04-22T15:20:07.973Z</time></trkpt><trkpt lat="45.778598008180154" lon="8.73655729103256"><ele>311.0</ele><time>2026-04-22T15:20:10.973Z</time></trkpt><trkpt lat="45.77864318677522" lon="8.736627251459499"><ele>311.0</ele><time>2026-04-22T15:20:13.972Z</time></trkpt><trkpt lat="45.778690309043725" lon="8.73673028505463"><ele>311.0</ele><time>2026-04-22T15:20:17.972Z</time></trkpt><trkpt lat="45.77873146532429" lon="8.736801364160584"><ele>311.0</ele><time>2026-04-22T15:20:20.972Z</time></trkpt><trkpt lat="45.77877338137036" lon="8.736870218314932"><ele>310.7142857142857</ele><time>2026-04-22T15:20:23.972Z</time></trkpt><trkpt lat="45.778830777291724" lon="8.736925428617278"><ele>310.42857142857144</ele><time>2026-04-22T15:20:26.972Z</time></trkpt><trkpt lat="45.77887716278051" lon="8.7370004618386"><ele>310.14285714285717</ele><time>2026-04-22T15:20:29.972Z</time></trkpt><trkpt lat="45.77892637676557" lon="8.737067987406784"><ele>309.8571428571429</ele><time>2026-04-22T15:20:33.972Z</time></trkpt><trkpt lat="45.77897075103411" lon="8.737161788503423"><ele>309.57142857142856</ele><time>2026-04-22T15:20:38.972Z</time></trkpt><trkpt lat="45.77902354285885" lon="8.737238452184059"><ele>309.28571428571433</ele><time>2026-04-22T15:20:43.972Z</time></trkpt><trkpt lat="45.77909188735701" lon="8.737294672563788"><ele>309.0</ele><time>2026-04-22T15:20:47.972Z</time></trkpt><trkpt lat="45.77914861104369" lon="8.737366959531279"><ele>309.0</ele><time>2026-04-22T15:20:56.972Z</time></trkpt><trkpt lat="45.7792185744586" lon="8.73743060073177"><ele>309.0</ele><time>2026-04-22T15:20:59.972Z</time></trkpt><trkpt lat="45.77927461642507" lon="8.73751140220184"><ele>309.0</ele><time>2026-04-22T15:21:02.972Z</time></trkpt><trkpt lat="45.77932215617123" lon="8.737581753407442"><ele>309.0</ele><time>2026-04-22T15:21:05.972Z</time></trkpt><trkpt lat="45.779381917615694" lon="8.737640499679673"><ele>309.0</ele><time>2026-04-22T15:21:08.972Z</time></trkpt><trkpt lat="45.77946419240945" lon="8.737697235362358"><ele>309.0</ele><time>2026-04-22T15:21:12.972Z</time></trkpt><trkpt lat="45.77952927840862" lon="8.7377335083516"><ele>309.42857142857144</ele><time>2026-04-22T15:21:15.972Z</time></trkpt><trkpt lat="45.77959825390055" lon="8.737788265560509"><ele>309.8571428571429</ele><time>2026-04-22T15:21:18.972Z</time></trkpt><trkpt lat="45.779659316249926" lon="8.737827641290457"><ele>310.28571428571433</ele><time>2026-04-22T15:21:20.972Z</time></trkpt><trkpt lat="45.7797336234198" lon="8.737873804561726"><ele>310.7142857142857</ele><time>2026-04-22T15:21:24.972Z</time></trkpt><trkpt lat="45.77979599854732" lon="8.737896054766198"><ele>311.1428571428571</ele><time>2026-04-22T15:21:27.972Z</time></trkpt><trkpt lat="45.779848525636645" lon="8.73795832290794"><ele>311.5714285714286</ele><time>2026-04-22T15:21:31.971Z</time></trkpt><trkpt lat="45.77989791099282" lon="8.7380494095228"><ele>312.0</ele><time>2026-04-22T15:21:35.971Z</time></trkpt><trkpt lat="45.77992746136844" lon="8.738160293983334"><ele>312.0</ele><time>2026-04-22T15:21:39.971Z</time></trkpt><trkpt lat="45.779939309692956" lon="8.73827271160752"><ele>312.0</ele><time>2026-04-22T15:21:43.971Z</time></trkpt><trkpt lat="45.779935542262194" lon="8.73838606083268"><ele>312.0</ele><time>2026-04-22T15:21:47.971Z</time></trkpt><trkpt lat="45.77993407194352" lon="8.738496248965381"><ele>312.0</ele><time>2026-04-22T15:21:51.971Z</time></trkpt><trkpt lat="45.779936551300196" lon="8.73861416704854"><ele>312.0</ele><time>2026-04-22T15:21:55.971Z</time></trkpt><trkpt lat="45.77994033774208" lon="8.738722354569031"><ele>312.0</ele><time>2026-04-22T15:21:58.971Z</time></trkpt><trkpt lat="45.77994109852889" lon="8.73882492052025"><ele>312.14285714285717</ele><time>2026-04-22T15:22:02.972Z</time></trkpt><trkpt lat="45.77995608455162" lon="8.738923354078127"><ele>312.2857142857143</ele><time>2026-04-22T15:22:07.972Z</time></trkpt><trkpt lat="45.77999096910682" lon="8.739022458797843"><ele>312.42857142857144</ele><time>2026-04-22T15:22:12.971Z</time></trkpt><trkpt lat="45.78001675760412" lon="8.739106658900845"><ele>312.57142857142856</ele><time>2026-04-22T15:22:17.971Z</time></trkpt><trkpt lat="45.780053533381725" lon="8.739184613491693"><ele>312.7142857142857</ele><time>2026-04-22T15:22:24.971Z</time></trkpt><trkpt lat="45.780090461793286" lon="8.7392645467174"><ele>312.85714285714283</ele><time>2026-04-22T15:22:28.971Z</time></trkpt><trkpt lat="45.78013157175819" lon="8.739347626068644"><ele>313.0</ele><time>2026-04-22T15:22:31.971Z</time></trkpt><trkpt lat="45.78015870871528" lon="8.73944755254153"><ele>312.16666666666663</ele><time>2026-04-22T15:22:35.971Z</time></trkpt><trkpt lat="45.78018851825169" lon="8.739544796921894"><ele>311.3333333333333</ele><time>2026-04-22T15:22:40.971Z</time></trkpt><trkpt lat="45.780209777339635" lon="8.739643358634954"><ele>310.5</ele><time>2026-04-22T15:22:44.971Z</time></trkpt><trkpt lat="45.780237247917576" lon="8.739742629888495"><ele>309.6666666666667</ele><time>2026-04-22T15:22:48.971Z</time></trkpt><trkpt lat="45.78026188960494" lon="8.739853934539045"><ele>308.83333333333337</ele><time>2026-04-22T15:22:51.971Z</time></trkpt><trkpt lat="45.78030589201711" lon="8.739964980447754"><ele>308.0</ele><time>2026-04-22T15:22:54.971Z</time></trkpt><trkpt lat="45.78031027511057" lon="8.740082092356923"><ele>308.0</ele><time>2026-04-22T15:22:58.971Z</time></trkpt><trkpt lat="45.78034756042036" lon="8.740181719845932"><ele>308.0</ele><time>2026-04-22T15:23:01.971Z</time></trkpt><trkpt lat="45.78038535108766" lon="8.74025722145956"><ele>308.0</ele><time>2026-04-22T15:23:05.97Z</time></trkpt><trkpt lat="45.7803450061058" lon="8.740353027009252"><ele>308.0</ele><time>2026-04-22T15:23:12.97Z</time></trkpt><trkpt lat="45.78029760450002" lon="8.740417534746134"><ele>308.0</ele><time>2026-04-22T15:23:15.97Z</time></trkpt><trkpt lat="45.78024924364834" lon="8.740498745930912"><ele>308.0</ele><time>2026-04-22T15:23:20.97Z</time></trkpt><trkpt lat="45.78019744819319" lon="8.74056562272884"><ele>308.0</ele><time>2026-04-22T15:23:23.97Z</time></trkpt><trkpt lat="45.78014224508361" lon="8.740626174398416"><ele>308.7142857142857</ele><time>2026-04-22T15:23:26.97Z</time></trkpt><trkpt lat="45.7800713705269" lon="8.740674213236302"><ele>309.42857142857144</ele><time>2026-04-22T15:23:29.97Z</time></trkpt><trkpt lat="45.78000440140523" lon="8.740694333024583"><ele>310.1428571428571</ele><time>2026-04-22T15:23:32.97Z</time></trkpt><trkpt lat="45.77993859742359" lon="8.740707991230265"><ele>310.8571428571429</ele><time>2026-04-22T15:23:39.97Z</time></trkpt><trkpt lat="45.77987362757409" lon="8.740737932816524"><ele>311.57142857142856</ele><time>2026-04-22T15:23:52.97Z</time></trkpt><trkpt lat="45.77981054764167" lon="8.740728605865396"><ele>312.2857142857143</ele><time>2026-04-22T15:24:03.972Z</time></trkpt><trkpt lat="45.77975387740674" lon="8.740797904980354"><ele>313.0</ele><time>2026-04-22T15:24:14.971Z</time></trkpt><trkpt lat="45.77968841238061" lon="8.740828927752794"><ele>313.0</ele><time>2026-04-22T15:24:22.971Z</time></trkpt><trkpt lat="45.77961468222337" lon="8.74082629883895"><ele>313.0</ele><time>2026-04-22T15:24:28.971Z</time></trkpt><trkpt lat="45.77954927224738" lon="8.740862440169781"><ele>313.0</ele><time>2026-04-22T15:24:39.97Z</time></trkpt><trkpt lat="45.77948084548706" lon="8.740885625965548"><ele>313.0</ele><time>2026-04-22T15:24:49.97Z</time></trkpt><trkpt lat="45.77941618001111" lon="8.740915936480608"><ele>313.0</ele><time>2026-04-22T15:24:57.97Z</time></trkpt><trkpt lat="45.77934850326727" lon="8.740934241508972"><ele>313.0</ele><time>2026-04-22T15:25:04.97Z</time></trkpt><trkpt lat="45.779273887743585" lon="8.740929355598615"><ele>313.0</ele><time>2026-04-22T15:25:11.97Z</time></trkpt><trkpt lat="45.77923599855792" lon="8.741002301421796"><ele>314.7142857142857</ele><time>2026-04-22T15:25:27.97Z</time></trkpt><trkpt lat="45.77918829306302" lon="8.741068975285541"><ele>316.42857142857144</ele><time>2026-04-22T15:25:37.971Z</time></trkpt><trkpt lat="45.779126294882154" lon="8.741103080047264"><ele>318.1428571428571</ele><time>2026-04-22T15:25:45.974Z</time></trkpt><trkpt lat="45.77906748155457" lon="8.741138690540723"><ele>319.8571428571429</ele><time>2026-04-22T15:25:55.975Z</time></trkpt><trkpt lat="45.7790090220665" lon="8.741177481057813"><ele>321.5714285714286</ele><time>2026-04-22T15:26:10.978Z</time></trkpt><trkpt lat="45.77894567439975" lon="8.741177580579652"><ele>323.2857142857143</ele><time>2026-04-22T15:26:24.978Z</time></trkpt><trkpt lat="45.778902094842756" lon="8.741245368176896"><ele>325.0</ele><time>2026-04-22T15:26:36.978Z</time></trkpt><trkpt lat="45.77887353752606" lon="8.741329502179227"><ele>325.0</ele><time>2026-04-22T15:26:44.978Z</time></trkpt><trkpt lat="45.77881478128475" lon="8.741379548108622"><ele>325.0</ele><time>2026-04-22T15:26:57.978Z</time></trkpt><trkpt lat="45.77877766918223" lon="8.741304788496876"><ele>325.0</ele><time>2026-04-22T15:27:09.978Z</time></trkpt><trkpt lat="45.77874934357928" lon="8.741217903619939"><ele>325.0</ele><time>2026-04-22T15:27:14.978Z</time></trkpt><trkpt lat="45.778728966311995" lon="8.741118261837805"><ele>325.0</ele><time>2026-04-22T15:27:20.978Z</time></trkpt><trkpt lat="45.778705994839584" lon="8.741033549130684"><ele>325.0</ele><time>2026-04-22T15:27:26.978Z</time></trkpt><trkpt lat="45.778688654776495" lon="8.740928927970204"><ele>325.0</ele><time>2026-04-22T15:27:30.978Z</time></trkpt><trkpt lat="45.77866340093688" lon="8.740827813561724"><ele>324.7142857142857</ele><time>2026-04-22T15:27:36.978Z</time></trkpt><trkpt lat="45.77864988190288" lon="8.740718064363994"><ele>324.42857142857144</ele><time>2026-04-22T15:27:41.978Z</time></trkpt><trkpt lat="45.77862171886414" lon="8.74060659054232"><ele>324.14285714285717</ele><time>2026-04-22T15:27:46.977Z</time></trkpt><trkpt lat="45.77860137160753" lon="8.740510467743613"><ele>323.8571428571429</ele><time>2026-04-22T15:27:51.977Z</time></trkpt><trkpt lat="45.778552135496035" lon="8.74044051289117"><ele>323.57142857142856</ele><time>2026-04-22T15:27:55.977Z</time></trkpt><trkpt lat="45.77850242765391" lon="8.74035391013912"><ele>323.28571428571433</ele><time>2026-04-22T15:27:59.977Z</time></trkpt><trkpt lat="45.77845868999732" lon="8.740284947530915"><ele>323.0</ele><time>2026-04-22T15:28:02.977Z</time></trkpt><trkpt lat="45.778423232455836" lon="8.740209676922928"><ele>325.42857142857144</ele><time>2026-04-22T15:28:05.977Z</time></trkpt><trkpt lat="45.77840806788224" lon="8.740117627964578"><ele>327.8571428571429</ele><time>2026-04-22T15:28:09.977Z</time></trkpt><trkpt lat="45.77837286650046" lon="8.740029249954576"><ele>330.28571428571433</ele><time>2026-04-22T15:28:12.977Z</time></trkpt><trkpt lat="45.77835746422331" lon="8.73991989912462"><ele>332.7142857142857</ele><time>2026-04-22T15:28:17.979Z</time></trkpt><trkpt lat="45.778329469315224" lon="8.739813840438327"><ele>335.1428571428571</ele><time>2026-04-22T15:28:20.978Z</time></trkpt><trkpt lat="45.77830688479076" lon="8.739701177489751"><ele>337.5714285714286</ele><time>2026-04-22T15:28:25.979Z</time></trkpt><trkpt lat="45.77826905348449" lon="8.739618594809272"><ele>340.0</ele><time>2026-04-22T15:28:28.978Z</time></trkpt><trkpt lat="45.77821755269584" lon="8.739533489366664"><ele>340.0</ele><time>2026-04-22T15:28:34.978Z</time></trkpt><trkpt lat="45.77819657371057" lon="8.739442409754247"><ele>340.0</ele><time>2026-04-22T15:28:40.978Z</time></trkpt><trkpt lat="45.77815564790145" lon="8.73935636883988"><ele>340.0</ele><time>2026-04-22T15:28:44.978Z</time></trkpt><trkpt lat="45.77811525855496" lon="8.739280367303188"><ele>340.0</ele><time>2026-04-22T15:28:48.978Z</time></trkpt><trkpt lat="45.77809891070022" lon="8.739153120517917"><ele>340.0</ele><time>2026-04-22T15:29:04.978Z</time></trkpt><trkpt lat="45.778043539206095" lon="8.739063644308915"><ele>340.0</ele><time>2026-04-22T15:29:11.978Z</time></trkpt><trkpt lat="45.77798086692001" lon="8.738947116454293"><ele>340.66666666666663</ele><time>2026-04-22T15:29:16.978Z</time></trkpt><trkpt lat="45.77795655450475" lon="8.738844051779704"><ele>341.3333333333333</ele><time>2026-04-22T15:29:20.977Z</time></trkpt><trkpt lat="45.777904962673574" lon="8.73877144817788"><ele>342.0</ele><time>2026-04-22T15:29:24.977Z</time></trkpt><trkpt lat="45.7778723352464" lon="8.738693980129426"><ele>342.6666666666667</ele><time>2026-04-22T15:29:30.977Z</time></trkpt><trkpt lat="45.7778279330519" lon="8.738626243881843"><ele>343.33333333333337</ele><time>2026-04-22T15:29:40.977Z</time></trkpt><trkpt lat="45.777784538350566" lon="8.738547400554342"><ele>344.0</ele><time>2026-04-22T15:29:44.977Z</time></trkpt><trkpt lat="45.77764043780921" lon="8.738387082741108"><ele>344.00000000000006</ele><time>2026-04-22T15:31:10.978Z</time></trkpt><trkpt lat="45.7776393943042" lon="8.738484885260133"><ele>344.0</ele><time>2026-04-22T15:31:25.978Z</time></trkpt><trkpt lat="45.77765865256948" lon="8.738570989722117"><ele>344.0</ele><time>2026-04-22T15:31:35.978Z</time></trkpt><trkpt lat="45.7776578329595" lon="8.73866638349131"><ele>344.0</ele><time>2026-04-22T15:31:45.978Z</time></trkpt><trkpt lat="45.777621839496526" lon="8.738755433961066"><ele>344.0</ele><time>2026-04-22T15:32:04.978Z</time></trkpt><trkpt lat="45.77765425118468" lon="8.738833441424857"><ele>344.00000000000006</ele><time>2026-04-22T15:32:12.977Z</time></trkpt><trkpt lat="45.77765589391813" lon="8.73893524019475"><ele>344.0</ele><time>2026-04-22T15:33:44.977Z</time></trkpt><trkpt lat="45.77759446781469" lon="8.738956836459701"><ele>345.5714285714286</ele><time>2026-04-22T15:34:24.977Z</time></trkpt><trkpt lat="45.77762041961596" lon="8.739056171782142"><ele>347.14285714285717</ele><time>2026-04-22T15:34:36.978Z</time></trkpt><trkpt lat="45.77765231487494" lon="8.739156204906351"><ele>348.7142857142857</ele><time>2026-04-22T15:35:33.977Z</time></trkpt><trkpt lat="45.777609462054684" lon="8.739224165956664"><ele>350.28571428571433</ele><time>2026-04-22T15:35:52.977Z</time></trkpt><trkpt lat="45.77759504904271" lon="8.7393204680456"><ele>351.8571428571429</ele><time>2026-04-22T15:36:04.977Z</time></trkpt><trkpt lat="45.77754217333033" lon="8.739388697336143"><ele>353.42857142857144</ele><time>2026-04-22T15:36:13.977Z</time></trkpt><trkpt lat="45.77751388569666" lon="8.739479467300715"><ele>355.0</ele><time>2026-04-22T15:36:26.977Z</time></trkpt><trkpt lat="45.77752728360301" lon="8.739567811886523"><ele>356.42857142857144</ele><time>2026-04-22T15:36:38.978Z</time></trkpt><trkpt lat="45.77751641062947" lon="8.7397006061997"><ele>357.8571428571429</ele><time>2026-04-22T15:37:07.978Z</time></trkpt><trkpt lat="45.777448368701705" lon="8.739707170037498"><ele>359.28571428571433</ele><time>2026-04-22T15:37:18.977Z</time></trkpt><trkpt lat="45.77738614174928" lon="8.739739594449794"><ele>360.7142857142857</ele><time>2026-04-22T15:37:28.977Z</time></trkpt><trkpt lat="45.777328392835884" lon="8.739776546241007"><ele>362.14285714285717</ele><time>2026-04-22T15:37:35.977Z</time></trkpt><trkpt lat="45.777264835824546" lon="8.739801275454711"><ele>363.5714285714286</ele><time>2026-04-22T15:37:42.977Z</time></trkpt><trkpt lat="45.77720143042389" lon="8.7398388548586"><ele>365.0</ele><time>2026-04-22T15:37:50.977Z</time></trkpt><trkpt lat="45.77714611846864" lon="8.739901616162516"><ele>365.00000000000006</ele><time>2026-04-22T15:37:57.977Z</time></trkpt><trkpt lat="45.777087129754634" lon="8.739951578586837"><ele>365.0</ele><time>2026-04-22T15:38:05.977Z</time></trkpt><trkpt lat="45.77703173637413" lon="8.740001755601869"><ele>365.0</ele><time>2026-04-22T15:38:13.977Z</time></trkpt><trkpt lat="45.776961428447265" lon="8.739984654232043"><ele>365.0</ele><time>2026-04-22T15:38:23.977Z</time></trkpt><trkpt lat="45.77689878040346" lon="8.739947544248418"><ele>365.0</ele><time>2026-04-22T15:38:28.977Z</time></trkpt><trkpt lat="45.776834256871645" lon="8.739887209092098"><ele>365.00000000000006</ele><time>2026-04-22T15:38:33.977Z</time></trkpt><trkpt lat="45.77677341091796" lon="8.739850791429673"><ele>365.0</ele><time>2026-04-22T15:38:37.977Z</time></trkpt><trkpt lat="45.77670600464989" lon="8.739833596317487"><ele>366.00000000000006</ele><time>2026-04-22T15:38:42.977Z</time></trkpt><trkpt lat="45.77663092834941" lon="8.739807245738717"><ele>367.0</ele><time>2026-04-22T15:38:46.978Z</time></trkpt><trkpt lat="45.77656648703273" lon="8.739804520712473"><ele>368.0</ele><time>2026-04-22T15:38:49.978Z</time></trkpt><trkpt lat="45.77650534550912" lon="8.739827767960548"><ele>369.0</ele><time>2026-04-22T15:38:52.978Z</time></trkpt><trkpt lat="45.77643886729096" lon="8.739852097041608"><ele>370.0</ele><time>2026-04-22T15:38:56.977Z</time></trkpt><trkpt lat="45.77636814945649" lon="8.739841625968063"><ele>371.00000000000006</ele><time>2026-04-22T15:39:00.977Z</time></trkpt><trkpt lat="45.776307903747515" lon="8.73980167319903"><ele>372.0</ele><time>2026-04-22T15:39:04.977Z</time></trkpt><trkpt lat="45.77623481729317" lon="8.739763187470137"><ele>372.00000000000006</ele><time>2026-04-22T15:39:08.977Z</time></trkpt><trkpt lat="45.77616761175428" lon="8.739712672220495"><ele>372.0</ele><time>2026-04-22T15:39:14.977Z</time></trkpt><trkpt lat="45.77609825683852" lon="8.739667422198206"><ele>372.0</ele><time>2026-04-22T15:39:20.977Z</time></trkpt><trkpt lat="45.77603678186486" lon="8.739625579359467"><ele>372.0</ele><time>2026-04-22T15:39:31.977Z</time></trkpt><trkpt lat="45.77598140566059" lon="8.73967247226823"><ele>372.0</ele><time>2026-04-22T15:40:32.976Z</time></trkpt><trkpt lat="45.77591398506808" lon="8.73964773396733"><ele>372.00000000000006</ele><time>2026-04-22T15:40:42.976Z</time></trkpt><trkpt lat="45.77584811948135" lon="8.739589196517539"><ele>372.0</ele><time>2026-04-22T15:40:49.978Z</time></trkpt><trkpt lat="45.77579679317276" lon="8.739528945111225"><ele>372.7142857142857</ele><time>2026-04-22T15:40:55.978Z</time></trkpt><trkpt lat="45.7757354470902" lon="8.73949353755523"><ele>373.42857142857144</ele><time>2026-04-22T15:41:06.977Z</time></trkpt><trkpt lat="45.77566955824831" lon="8.73946168639273"><ele>374.1428571428571</ele><time>2026-04-22T15:41:14.977Z</time></trkpt><trkpt lat="45.77559201139497" lon="8.739446920619704"><ele>374.8571428571429</ele><time>2026-04-22T15:41:21.977Z</time></trkpt><trkpt lat="45.775521268309824" lon="8.739430818430453"><ele>375.57142857142856</ele><time>2026-04-22T15:41:27.977Z</time></trkpt><trkpt lat="45.7754721927284" lon="8.739487983758696"><ele>376.2857142857143</ele><time>2026-04-22T15:41:32.977Z</time></trkpt><trkpt lat="45.77540906018051" lon="8.739525657565244"><ele>377.0</ele><time>2026-04-22T15:41:40.977Z</time></trkpt><trkpt lat="45.77533975281828" lon="8.739543570796586"><ele>376.99999999999994</ele><time>2026-04-22T15:41:52.977Z</time></trkpt><trkpt lat="45.77527653304877" lon="8.739569362736606"><ele>377.0</ele><time>2026-04-22T15:42:06.977Z</time></trkpt><trkpt lat="45.77521312467655" lon="8.73958090262768"><ele>377.0</ele><time>2026-04-22T15:42:18.976Z</time></trkpt><trkpt lat="45.77514081531336" lon="8.739580999276631"><ele>377.0</ele><time>2026-04-22T15:42:29.976Z</time></trkpt><trkpt lat="45.775075951504085" lon="8.73955653628795"><ele>377.0</ele><time>2026-04-22T15:42:38.976Z</time></trkpt><trkpt lat="45.77501179770607" lon="8.739517927453733"><ele>376.99999999999994</ele><time>2026-04-22T15:43:03.978Z</time></trkpt><trkpt lat="45.77498312517506" lon="8.739608413578383"><ele>377.0</ele><time>2026-04-22T15:43:12.978Z</time></trkpt><trkpt lat="45.77492611755246" lon="8.739672890110482"><ele>379.57142857142856</ele><time>2026-04-22T15:43:19.978Z</time></trkpt><trkpt lat="45.774864500263035" lon="8.739693948561856"><ele>382.1428571428571</ele><time>2026-04-22T15:43:25.978Z</time></trkpt><trkpt lat="45.77479807252602" lon="8.739721482267287"><ele>384.71428571428567</ele><time>2026-04-22T15:43:38.978Z</time></trkpt><trkpt lat="45.7747335440443" lon="8.739721459844926"><ele>387.2857142857143</ele><time>2026-04-22T15:43:44.978Z</time></trkpt><trkpt lat="45.77466665967136" lon="8.739720057699913"><ele>389.8571428571429</ele><time>2026-04-22T15:44:50.979Z</time></trkpt><trkpt lat="45.7745992936049" lon="8.739729781986345"><ele>392.4285714285714</ele><time>2026-04-22T15:44:57.979Z</time></trkpt><trkpt lat="45.77453366233247" lon="8.739708113136318"><ele>395.0</ele><time>2026-04-22T15:45:05.981Z</time></trkpt><trkpt lat="45.77450445199247" lon="8.739607583228102"><ele>395.0</ele><time>2026-04-22T15:45:30.981Z</time></trkpt><trkpt lat="45.77449570571452" lon="8.739511379651736"><ele>395.0</ele><time>2026-04-22T15:45:35.981Z</time></trkpt><trkpt lat="45.774494018977116" lon="8.739404593349153"><ele>395.0</ele><time>2026-04-22T15:45:42.981Z</time></trkpt><trkpt lat="45.774497060734724" lon="8.73930455005035"><ele>395.0</ele><time>2026-04-22T15:45:48.981Z</time></trkpt><trkpt lat="45.774504251293145" lon="8.739206168021763"><ele>395.0</ele><time>2026-04-22T15:45:51.981Z</time></trkpt><trkpt lat="45.77448710234228" lon="8.73911096638093"><ele>395.0</ele><time>2026-04-22T15:45:56.981Z</time></trkpt><trkpt lat="45.77446202258334" lon="8.738992263130045"><ele>395.0</ele><time>2026-04-22T15:46:02.981Z</time></trkpt><trkpt lat="45.7743834355848" lon="8.738979020063258"><ele>394.85714285714283</ele><time>2026-04-22T15:46:08.981Z</time></trkpt><trkpt lat="45.774312026515446" lon="8.738967642408015"><ele>394.7142857142857</ele><time>2026-04-22T15:46:14.981Z</time></trkpt><trkpt lat="45.77425040648859" lon="8.738943906640461"><ele>394.57142857142856</ele><time>2026-04-22T15:46:21.98Z</time></trkpt><trkpt lat="45.77419417148546" lon="8.738885310174298"><ele>394.42857142857144</ele><time>2026-04-22T15:46:26.98Z</time></trkpt><trkpt lat="45.7741379504542" lon="8.738818138044417"><ele>394.28571428571433</ele><time>2026-04-22T15:46:32.98Z</time></trkpt><trkpt lat="45.774092573075" lon="8.738754701979158"><ele>394.14285714285717</ele><time>2026-04-22T15:46:36.98Z</time></trkpt><trkpt lat="45.77403321375712" lon="8.738696193862621"><ele>394.0</ele><time>2026-04-22T15:46:42.98Z</time></trkpt><trkpt lat="45.773974710102465" lon="8.738643090971035"><ele>394.0</ele><time>2026-04-22T15:46:47.98Z</time></trkpt><trkpt lat="45.77392773506168" lon="8.738563620076672"><ele>394.0</ele><time>2026-04-22T15:46:52.98Z</time></trkpt><trkpt lat="45.77386500678305" lon="8.738508121472933"><ele>394.0</ele><time>2026-04-22T15:46:57.98Z</time></trkpt><trkpt lat="45.77380691500582" lon="8.738458015713013"><ele>394.0</ele><time>2026-04-22T15:47:03.98Z</time></trkpt><trkpt lat="45.77374887982056" lon="8.738412360655918"><ele>394.0</ele><time>2026-04-22T15:47:12.981Z</time></trkpt><trkpt lat="45.77368777999627" lon="8.738348451242862"><ele>394.0</ele><time>2026-04-22T15:47:15.981Z</time></trkpt><trkpt lat="45.77361309920102" lon="8.738272932261756"><ele>394.0</ele><time>2026-04-22T15:47:19.981Z</time></trkpt><trkpt lat="45.77355704461691" lon="8.738222141173125"><ele>393.2857142857143</ele><time>2026-04-22T15:47:22.981Z</time></trkpt><trkpt lat="45.77349634004492" lon="8.738168961288366"><ele>392.57142857142856</ele><time>2026-04-22T15:47:26.981Z</time></trkpt><trkpt lat="45.773444140675494" lon="8.738104621558161"><ele>391.8571428571429</ele><time>2026-04-22T15:47:31.981Z</time></trkpt><trkpt lat="45.77337677802975" lon="8.738055549714717"><ele>391.1428571428571</ele><time>2026-04-22T15:47:36.981Z</time></trkpt><trkpt lat="45.77332167178239" lon="8.738007791174706"><ele>390.4285714285714</ele><time>2026-04-22T15:47:41.981Z</time></trkpt><trkpt lat="45.7732728889258" lon="8.737944668415723"><ele>389.7142857142857</ele><time>2026-04-22T15:47:47.981Z</time></trkpt><trkpt lat="45.77321970807973" lon="8.73789554564615"><ele>389.0</ele><time>2026-04-22T15:47:53.981Z</time></trkpt><trkpt lat="45.77316566489659" lon="8.737837613938481"><ele>389.0</ele><time>2026-04-22T15:48:01.981Z</time></trkpt><trkpt lat="45.77309080773894" lon="8.737789721073309"><ele>389.0</ele><time>2026-04-22T15:48:08.981Z</time></trkpt><trkpt lat="45.773032372947185" lon="8.73775201388368"><ele>389.0</ele><time>2026-04-22T15:48:12.981Z</time></trkpt><trkpt lat="45.7729685696592" lon="8.737729551614095"><ele>389.0</ele><time>2026-04-22T15:48:17.981Z</time></trkpt><trkpt lat="45.77291159714253" lon="8.737788436605559"><ele>389.0</ele><time>2026-04-22T15:48:24.981Z</time></trkpt><trkpt lat="45.77285024374195" lon="8.737846162673305"><ele>389.0</ele><time>2026-04-22T15:48:27.981Z</time></trkpt><trkpt lat="45.7727634522073" lon="8.737875759050896"><ele>389.0</ele><time>2026-04-22T15:48:31.981Z</time></trkpt><trkpt lat="45.772682358803436" lon="8.737850518729987"><ele>388.8571428571429</ele><time>2026-04-22T15:48:35.981Z</time></trkpt><trkpt lat="45.772613356822035" lon="8.737812943604563"><ele>388.71428571428567</ele><time>2026-04-22T15:48:39.98Z</time></trkpt><trkpt lat="45.77255464472846" lon="8.73777744540737"><ele>388.57142857142856</ele><time>2026-04-22T15:48:43.98Z</time></trkpt><trkpt lat="45.77251063580605" lon="8.737704077913419"><ele>388.42857142857144</ele><time>2026-04-22T15:48:47.98Z</time></trkpt><trkpt lat="45.77244763679377" lon="8.737647870035168"><ele>388.28571428571433</ele><time>2026-04-22T15:48:54.98Z</time></trkpt><trkpt lat="45.77238238711227" lon="8.737656135224608"><ele>388.1428571428571</ele><time>2026-04-22T15:48:56.98Z</time></trkpt><trkpt lat="45.77229404402115" lon="8.737651030227175"><ele>388.0</ele><time>2026-04-22T15:48:59.98Z</time></trkpt><trkpt lat="45.772216446976515" lon="8.737651379111666"><ele>388.0</ele><time>2026-04-22T15:49:02.98Z</time></trkpt><trkpt lat="45.772143562317254" lon="8.737669027183966"><ele>388.0</ele><time>2026-04-22T15:49:05.98Z</time></trkpt><trkpt lat="45.772071821019495" lon="8.73766124130763"><ele>388.0</ele><time>2026-04-22T15:49:08.98Z</time></trkpt><trkpt lat="45.77200287738469" lon="8.737648802840623"><ele>388.0</ele><time>2026-04-22T15:49:12.981Z</time></trkpt><trkpt lat="45.771938553524315" lon="8.737660737997803"><ele>388.0</ele><time>2026-04-22T15:49:17.981Z</time></trkpt><trkpt lat="45.771969814174014" lon="8.737752850313878"><ele>388.0</ele><time>2026-04-22T15:49:26.981Z</time></trkpt><trkpt lat="45.772038123112864" lon="8.737832312008617"><ele>388.0</ele><time>2026-04-22T15:49:30.981Z</time></trkpt><trkpt lat="45.77209924841789" lon="8.737876055150062"><ele>386.83333333333337</ele><time>2026-04-22T15:49:33.981Z</time></trkpt><trkpt lat="45.7721498829435" lon="8.737944009180925"><ele>385.6666666666667</ele><time>2026-04-22T15:49:37.981Z</time></trkpt><trkpt lat="45.77216525511222" lon="8.738053453561438"><ele>384.5</ele><time>2026-04-22T15:49:43.981Z</time></trkpt><trkpt lat="45.77219265739617" lon="8.73814198058983"><ele>383.33333333333337</ele><time>2026-04-22T15:49:46.981Z</time></trkpt><trkpt lat="45.772234613063794" lon="8.738235121179985"><ele>382.1666666666667</ele><time>2026-04-22T15:49:50.981Z</time></trkpt><trkpt lat="45.772276502430586" lon="8.738338687166552"><ele>381.0</ele><time>2026-04-22T15:49:54.981Z</time></trkpt><trkpt lat="45.77232461802034" lon="8.738420980664063"><ele>381.0</ele><time>2026-04-22T15:49:58.981Z</time></trkpt><trkpt lat="45.77236358338886" lon="8.738499848669507"><ele>381.0</ele><time>2026-04-22T15:50:01.981Z</time></trkpt><trkpt lat="45.77240509602626" lon="8.73858729069736"><ele>381.0</ele><time>2026-04-22T15:50:06.981Z</time></trkpt><trkpt lat="45.7724487058871" lon="8.738672009308296"><ele>381.0</ele><time>2026-04-22T15:50:09.981Z</time></trkpt><trkpt lat="45.77250626433526" lon="8.738747980964876"><ele>381.0</ele><time>2026-04-22T15:50:13.981Z</time></trkpt><trkpt lat="45.77254300487096" lon="8.738828514636989"><ele>381.0</ele><time>2026-04-22T15:50:17.981Z</time></trkpt><trkpt lat="45.77258019723597" lon="8.738903775317125"><ele>381.0</ele><time>2026-04-22T15:50:20.981Z</time></trkpt><trkpt lat="45.772599312676334" lon="8.73899549131402"><ele>380.4285714285714</ele><time>2026-04-22T15:50:23.981Z</time></trkpt><trkpt lat="45.77263287445244" lon="8.73909101775771"><ele>379.8571428571429</ele><time>2026-04-22T15:50:26.981Z</time></trkpt><trkpt lat="45.772679072301095" lon="8.739157351222314"><ele>379.2857142857143</ele><time>2026-04-22T15:50:30.981Z</time></trkpt><trkpt lat="45.77270300501324" lon="8.739254485880862"><ele>378.71428571428567</ele><time>2026-04-22T15:50:33.981Z</time></trkpt><trkpt lat="45.77264514996338" lon="8.739300413711643"><ele>378.1428571428571</ele><time>2026-04-22T15:50:38.98Z</time></trkpt><trkpt lat="45.77257100694276" lon="8.73926199461823"><ele>377.57142857142856</ele><time>2026-04-22T15:50:44.98Z</time></trkpt><trkpt lat="45.772502286276556" lon="8.739218457411756"><ele>377.0</ele><time>2026-04-22T15:50:48.98Z</time></trkpt><trkpt lat="45.772428427719504" lon="8.739176625833252"><ele>376.0</ele><time>2026-04-22T15:50:52.98Z</time></trkpt><trkpt lat="45.77234904446888" lon="8.739152181626663"><ele>375.0</ele><time>2026-04-22T15:50:56.98Z</time></trkpt><trkpt lat="45.77226563734357" lon="8.739113087214644"><ele>374.0</ele><time>2026-04-22T15:51:00.98Z</time></trkpt><trkpt lat="45.77218098774966" lon="8.739074316939218"><ele>373.0</ele><time>2026-04-22T15:51:03.98Z</time></trkpt><trkpt lat="45.77211170850504" lon="8.739051614929078"><ele>372.0</ele><time>2026-04-22T15:51:06.98Z</time></trkpt><trkpt lat="45.77204703931481" lon="8.739041971097203"><ele>371.0</ele><time>2026-04-22T15:51:09.98Z</time></trkpt><trkpt lat="45.77198627198181" lon="8.739017905982543"><ele>371.0</ele><time>2026-04-22T15:51:11.98Z</time></trkpt><trkpt lat="45.771913249679166" lon="8.7390111653549"><ele>371.0</ele><time>2026-04-22T15:51:14.98Z</time></trkpt><trkpt lat="45.771826791642766" lon="8.739015658026549"><ele>371.0</ele><time>2026-04-22T15:51:18.982Z</time></trkpt><trkpt lat="45.77175127805187" lon="8.73905033268927"><ele>371.0</ele><time>2026-04-22T15:51:23.982Z</time></trkpt><trkpt lat="45.771687824802136" lon="8.739097062392629"><ele>371.0</ele><time>2026-04-22T15:51:26.981Z</time></trkpt><trkpt lat="45.771625259279745" lon="8.739132997726845"><ele>371.0</ele><time>2026-04-22T15:51:29.982Z</time></trkpt><trkpt lat="45.771553682675524" lon="8.739188844171744"><ele>370.42857142857144</ele><time>2026-04-22T15:51:32.982Z</time></trkpt><trkpt lat="45.77148545055944" lon="8.73920896346252"><ele>369.8571428571429</ele><time>2026-04-22T15:51:35.981Z</time></trkpt><trkpt lat="45.771413873199656" lon="8.739265809390597"><ele>369.2857142857143</ele><time>2026-04-22T15:51:39.981Z</time></trkpt><trkpt lat="45.771352873931946" lon="8.739312563302407"><ele>368.7142857142857</ele><time>2026-04-22T15:51:42.981Z</time></trkpt><trkpt lat="45.77129544958794" lon="8.739352987923873"><ele>368.14285714285717</ele><time>2026-04-22T15:51:45.981Z</time></trkpt><trkpt lat="45.77121843535813" lon="8.739389695955447"><ele>367.57142857142856</ele><time>2026-04-22T15:51:49.981Z</time></trkpt><trkpt lat="45.771161555020285" lon="8.739429345529766"><ele>367.0</ele><time>2026-04-22T15:51:52.981Z</time></trkpt><trkpt lat="45.77110455014786" lon="8.739476913996468"><ele>366.85714285714283</ele><time>2026-04-22T15:51:56.981Z</time></trkpt><trkpt lat="45.77103781495229" lon="8.739527556356514"><ele>366.7142857142857</ele><time>2026-04-22T15:52:01.981Z</time></trkpt><trkpt lat="45.770976742831174" lon="8.739567889964583"><ele>366.57142857142856</ele><time>2026-04-22T15:52:04.981Z</time></trkpt><trkpt lat="45.770910181248034" lon="8.739602470500095"><ele>366.42857142857144</ele><time>2026-04-22T15:52:11.981Z</time></trkpt><trkpt lat="45.77084836471036" lon="8.739629826030257"><ele>366.28571428571433</ele><time>2026-04-22T15:52:17.981Z</time></trkpt><trkpt lat="45.770790002694135" lon="8.739668928812792"><ele>366.14285714285717</ele><time>2026-04-22T15:52:23.981Z</time></trkpt><trkpt lat="45.770723806953654" lon="8.739699075831847"><ele>366.0</ele><time>2026-04-22T15:52:35.981Z</time></trkpt><trkpt lat="45.770659185810196" lon="8.739737432822722"><ele>366.0</ele><time>2026-04-22T15:52:43.981Z</time></trkpt><trkpt lat="45.77059243855485" lon="8.739786837143258"><ele>366.0</ele><time>2026-04-22T15:52:47.981Z</time></trkpt><trkpt lat="45.770532905008274" lon="8.739846818714732"><ele>366.0</ele><time>2026-04-22T15:52:50.981Z</time></trkpt><trkpt lat="45.770476459051444" lon="8.739907465830415"><ele>366.0</ele><time>2026-04-22T15:52:54.981Z</time></trkpt><trkpt lat="45.77041743677103" lon="8.7399755242049"><ele>366.0</ele><time>2026-04-22T15:52:57.981Z</time></trkpt><trkpt lat="45.770360044410594" lon="8.74004270664973"><ele>366.0</ele><time>2026-04-22T15:53:00.981Z</time></trkpt><trkpt lat="45.770308539955224" lon="8.740115697527138"><ele>366.0</ele><time>2026-04-22T15:53:03.981Z</time></trkpt><trkpt lat="45.77024776210142" lon="8.740190774834662"><ele>365.5</ele><time>2026-04-22T15:53:06.98Z</time></trkpt><trkpt lat="45.77019886968796" lon="8.74025614485057"><ele>365.0</ele><time>2026-04-22T15:53:08.98Z</time></trkpt><trkpt lat="45.770146572709166" lon="8.74034438831149"><ele>364.5</ele><time>2026-04-22T15:53:11.98Z</time></trkpt><trkpt lat="45.77008622550536" lon="8.74044772365484"><ele>364.0</ele><time>2026-04-22T15:53:14.98Z</time></trkpt><trkpt lat="45.770056182552324" lon="8.740537887790932"><ele>363.5</ele><time>2026-04-22T15:53:16.98Z</time></trkpt><trkpt lat="45.77002417033754" lon="8.740644021830915"><ele>363.0</ele><time>2026-04-22T15:53:18.98Z</time></trkpt><trkpt lat="45.76999784276689" lon="8.740741183823749"><ele>363.0</ele><time>2026-04-22T15:53:20.98Z</time></trkpt><trkpt lat="45.769961215819094" lon="8.740826307964506"><ele>363.0</ele><time>2026-04-22T15:53:22.98Z</time></trkpt><trkpt lat="45.76992166497938" lon="8.740939779517065"><ele>363.0</ele><time>2026-04-22T15:53:25.982Z</time></trkpt><trkpt lat="45.769872161960876" lon="8.741019185926962"><ele>363.0</ele><time>2026-04-22T15:53:28.982Z</time></trkpt><trkpt lat="45.76984816549548" lon="8.741107541697403"><ele>363.0</ele><time>2026-04-22T15:53:32.982Z</time></trkpt><trkpt lat="45.769926596870114" lon="8.74114976620164"><ele>363.0</ele><time>2026-04-22T15:53:40.982Z</time></trkpt><trkpt lat="45.769997432617394" lon="8.741194002436927"><ele>362.6666666666667</ele><time>2026-04-22T15:53:43.982Z</time></trkpt><trkpt lat="45.770082551785144" lon="8.741229288795187"><ele>362.3333333333333</ele><time>2026-04-22T15:53:46.982Z</time></trkpt><trkpt lat="45.77015594674815" lon="8.741267304513736"><ele>362.0</ele><time>2026-04-22T15:53:50.982Z</time></trkpt><trkpt lat="45.770214525970545" lon="8.741306117875737"><ele>361.66666666666663</ele><time>2026-04-22T15:53:53.982Z</time></trkpt><trkpt lat="45.77029216316381" lon="8.741329346265122"><ele>361.3333333333333</ele><time>2026-04-22T15:53:56.982Z</time></trkpt><trkpt lat="45.770380277354334" lon="8.741365590940744"><ele>361.0</ele><time>2026-04-22T15:54:00.982Z</time></trkpt><trkpt lat="45.770439763239956" lon="8.741417423505952"><ele>360.7142857142857</ele><time>2026-04-22T15:54:03.982Z</time></trkpt><trkpt lat="45.770494644848306" lon="8.741472499020869"><ele>360.4285714285714</ele><time>2026-04-22T15:54:19.982Z</time></trkpt><trkpt lat="45.7705684993623" lon="8.741474128617256"><ele>360.1428571428571</ele><time>2026-04-22T15:54:25.981Z</time></trkpt><trkpt lat="45.77062755326481" lon="8.74152419570022"><ele>359.8571428571429</ele><time>2026-04-22T15:54:30.981Z</time></trkpt><trkpt lat="45.770683175868825" lon="8.741611539970178"><ele>359.57142857142856</ele><time>2026-04-22T15:54:34.981Z</time></trkpt><trkpt lat="45.770719582095886" lon="8.741706285012146"><ele>359.2857142857143</ele><time>2026-04-22T15:54:40.981Z</time></trkpt><trkpt lat="45.77075871813687" lon="8.741788890025916"><ele>359.0</ele><time>2026-04-22T15:54:44.981Z</time></trkpt><trkpt lat="45.77081111833088" lon="8.741845387569589"><ele>359.0</ele><time>2026-04-22T15:54:48.981Z</time></trkpt><trkpt lat="45.77086305403325" lon="8.741912636935348"><ele>359.0</ele><time>2026-04-22T15:54:53.981Z</time></trkpt><trkpt lat="45.77093582664791" lon="8.741964040303023"><ele>359.0</ele><time>2026-04-22T15:55:01.981Z</time></trkpt><trkpt lat="45.770997527779734" lon="8.741994699376654"><ele>359.0</ele><time>2026-04-22T15:55:05.981Z</time></trkpt><trkpt lat="45.77106276153206" lon="8.7420004668337"><ele>359.0</ele><time>2026-04-22T15:55:10.981Z</time></trkpt><trkpt lat="45.771129367052325" lon="8.742029600860155"><ele>359.0</ele><time>2026-04-22T15:55:15.981Z</time></trkpt><trkpt lat="45.771193350451895" lon="8.742056613362926"><ele>359.0</ele><time>2026-04-22T15:55:19.981Z</time></trkpt><trkpt lat="45.77135043945515" lon="8.74212812260114"><ele>355.8571428571429</ele><time>2026-04-22T15:55:39.982Z</time></trkpt><trkpt lat="45.77141916446608" lon="8.742170369598327"><ele>352.7142857142857</ele><time>2026-04-22T15:55:45.981Z</time></trkpt><trkpt lat="45.771488271498235" lon="8.742177758473826"><ele>349.57142857142856</ele><time>2026-04-22T15:55:50.981Z</time></trkpt><trkpt lat="45.771552663621826" lon="8.742232442479365"><ele>346.42857142857144</ele><time>2026-04-22T15:55:54.981Z</time></trkpt><trkpt lat="45.771587811978215" lon="8.742321915266178"><ele>343.2857142857143</ele><time>2026-04-22T15:55:59.981Z</time></trkpt><trkpt lat="45.7716289461631" lon="8.742403590332492"><ele>340.14285714285717</ele><time>2026-04-22T15:56:03.981Z</time></trkpt><trkpt lat="45.77167409943397" lon="8.742476945139423"><ele>337.0</ele><time>2026-04-22T15:56:10.981Z</time></trkpt><trkpt lat="45.7717032902952" lon="8.742563532614778"><ele>337.00000000000006</ele><time>2026-04-22T15:56:16.981Z</time></trkpt><trkpt lat="45.771752371714854" lon="8.742637077292779"><ele>337.0</ele><time>2026-04-22T15:56:20.981Z</time></trkpt><trkpt lat="45.77179226781057" lon="8.742730540377512"><ele>337.0</ele><time>2026-04-22T15:56:26.981Z</time></trkpt><trkpt lat="45.77183413654624" lon="8.74282201570388"><ele>337.0</ele><time>2026-04-22T15:56:30.981Z</time></trkpt><trkpt lat="45.771870182124886" lon="8.742925202107735"><ele>337.0</ele><time>2026-04-22T15:56:34.981Z</time></trkpt><trkpt lat="45.77184364907066" lon="8.74301082037925"><ele>337.00000000000006</ele><time>2026-04-22T15:56:40.981Z</time></trkpt><trkpt lat="45.7718221708068" lon="8.743098573421465"><ele>337.0</ele><time>2026-04-22T15:56:43.981Z</time></trkpt><trkpt lat="45.771774380124164" lon="8.743173671327872"><ele>336.5714285714286</ele><time>2026-04-22T15:56:46.981Z</time></trkpt><trkpt lat="45.77173712813997" lon="8.743252502297418"><ele>336.14285714285717</ele><time>2026-04-22T15:56:49.981Z</time></trkpt><trkpt lat="45.771689433503184" lon="8.743321837008322"><ele>335.7142857142857</ele><time>2026-04-22T15:56:52.981Z</time></trkpt><trkpt lat="45.77163269691362" lon="8.74341376947677"><ele>335.28571428571433</ele><time>2026-04-22T15:56:56.981Z</time></trkpt><trkpt lat="45.77159121573152" lon="8.743490765168866"><ele>334.8571428571429</ele><time>2026-04-22T15:57:00.981Z</time></trkpt><trkpt lat="45.77154093881846" lon="8.743570017137037"><ele>334.42857142857144</ele><time>2026-04-22T15:57:05.981Z</time></trkpt><trkpt lat="45.771487411564244" lon="8.743625603685304"><ele>334.0</ele><time>2026-04-22T15:57:09.981Z</time></trkpt><trkpt lat="45.77144242990593" lon="8.743691520602765"><ele>333.7142857142857</ele><time>2026-04-22T15:57:14.98Z</time></trkpt><trkpt lat="45.7714306371438" lon="8.743781370917263"><ele>333.42857142857144</ele><time>2026-04-22T15:58:32.982Z</time></trkpt><trkpt lat="45.77136390085266" lon="8.743838048489081"><ele>333.1428571428571</ele><time>2026-04-22T15:59:15.981Z</time></trkpt><trkpt lat="45.771295384288095" lon="8.743859067501209"><ele>332.8571428571429</ele><time>2026-04-22T15:59:20.981Z</time></trkpt><trkpt lat="45.771222650450454" lon="8.743914977720753"><ele>332.5714285714286</ele><time>2026-04-22T15:59:26.981Z</time></trkpt><trkpt lat="45.77117078662483" lon="8.743979657124953"><ele>332.2857142857143</ele><time>2026-04-22T15:59:31.981Z</time></trkpt><trkpt lat="45.771122889858184" lon="8.744042394577495"><ele>332.0</ele><time>2026-04-22T15:59:34.981Z</time></trkpt><trkpt lat="45.77107321331575" lon="8.744110145232373"><ele>332.0</ele><time>2026-04-22T15:59:37.981Z</time></trkpt><trkpt lat="45.771025543472945" lon="8.744191808184224"><ele>332.0</ele><time>2026-04-22T15:59:40.981Z</time></trkpt><trkpt lat="45.77096796339522" lon="8.744297758763434"><ele>332.0</ele><time>2026-04-22T15:59:43.981Z</time></trkpt><trkpt lat="45.77090585759724" lon="8.744384783360896"><ele>332.0</ele><time>2026-04-22T15:59:46.981Z</time></trkpt><trkpt lat="45.77085943142266" lon="8.744472553141803"><ele>332.0</ele><time>2026-04-22T15:59:49.981Z</time></trkpt><trkpt lat="45.77079780793743" lon="8.74454364618704"><ele>332.0</ele><time>2026-04-22T15:59:52.982Z</time></trkpt><trkpt lat="45.77072317287175" lon="8.74458764146922"><ele>331.1666666666667</ele><time>2026-04-22T15:59:55.982Z</time></trkpt><trkpt lat="45.77066026764564" lon="8.744595805561492"><ele>330.33333333333337</ele><time>2026-04-22T15:59:57.982Z</time></trkpt><trkpt lat="45.77056342950018" lon="8.744588915198767"><ele>329.5</ele><time>2026-04-22T16:00:00.982Z</time></trkpt><trkpt lat="45.770493778735286" lon="8.744580928255868"><ele>328.6666666666667</ele><time>2026-04-22T16:00:03.982Z</time></trkpt><trkpt lat="45.77041741118691" lon="8.744542459255827"><ele>327.8333333333333</ele><time>2026-04-22T16:00:06.982Z</time></trkpt><trkpt lat="45.770345271219426" lon="8.744496515984824"><ele>327.0</ele><time>2026-04-22T16:00:10.982Z</time></trkpt><trkpt lat="45.77028269823498" lon="8.744474890192585"><ele>327.0</ele><time>2026-04-22T16:00:14.982Z</time></trkpt><trkpt lat="45.77021089173657" lon="8.74445817126354"><ele>327.0</ele><time>2026-04-22T16:00:24.981Z</time></trkpt><trkpt lat="45.77014647315487" lon="8.74442701639674"><ele>327.0</ele><time>2026-04-22T16:00:30.981Z</time></trkpt><trkpt lat="45.77007037395224" lon="8.744398289406384"><ele>327.0</ele><time>2026-04-22T16:00:37.981Z</time></trkpt><trkpt lat="45.770002000848905" lon="8.744366918609721"><ele>327.0</ele><time>2026-04-22T16:00:44.981Z</time></trkpt><trkpt lat="45.769939285422424" lon="8.744335963500856"><ele>327.0</ele><time>2026-04-22T16:00:50.981Z</time></trkpt><trkpt lat="45.76987508302908" lon="8.744299622486881"><ele>327.0</ele><time>2026-04-22T16:00:55.981Z</time></trkpt><trkpt lat="45.76981688876549" lon="8.744264296102127"><ele>329.42857142857144</ele><time>2026-04-22T16:01:00.981Z</time></trkpt><trkpt lat="45.76974134211913" lon="8.744236044631327"><ele>331.8571428571429</ele><time>2026-04-22T16:01:06.981Z</time></trkpt><trkpt lat="45.76968833813384" lon="8.744175641375353"><ele>334.28571428571433</ele><time>2026-04-22T16:01:13.981Z</time></trkpt><trkpt lat="45.76962658742056" lon="8.744140774281766"><ele>336.7142857142857</ele><time>2026-04-22T16:01:19.981Z</time></trkpt><trkpt lat="45.76956265520364" lon="8.744076392955135"><ele>339.14285714285717</ele><time>2026-04-22T16:01:26.981Z</time></trkpt><trkpt lat="45.769498223932445" lon="8.744044665524413"><ele>341.5714285714286</ele><time>2026-04-22T16:01:33.981Z</time></trkpt><trkpt lat="45.76943919190164" lon="8.743994372920973"><ele>344.0</ele><time>2026-04-22T16:01:39.981Z</time></trkpt><trkpt lat="45.76938393708718" lon="8.743924607405152"><ele>343.28571428571433</ele><time>2026-04-22T16:01:47.981Z</time></trkpt><trkpt lat="45.769317772707446" lon="8.743876318669367"><ele>342.57142857142856</ele><time>2026-04-22T16:01:53.982Z</time></trkpt><trkpt lat="45.76925512716777" lon="8.743840399718241"><ele>341.8571428571429</ele><time>2026-04-22T16:01:59.982Z</time></trkpt><trkpt lat="45.769194387623024" lon="8.743812324885853"><ele>341.14285714285717</ele><time>2026-04-22T16:02:05.982Z</time></trkpt><trkpt lat="45.769125631844176" lon="8.743800554499343"><ele>340.42857142857144</ele><time>2026-04-22T16:02:12.982Z</time></trkpt><trkpt lat="45.76906161762474" lon="8.743820611507616"><ele>339.7142857142857</ele><time>2026-04-22T16:02:18.982Z</time></trkpt><trkpt lat="45.768986332623996" lon="8.743845467860858"><ele>339.0</ele><time>2026-04-22T16:02:26.981Z</time></trkpt><trkpt lat="45.768921550404144" lon="8.743810469400435"><ele>339.0</ele><time>2026-04-22T16:02:32.981Z</time></trkpt><trkpt lat="45.76886230429595" lon="8.74376013566013"><ele>339.0</ele><time>2026-04-22T16:02:38.981Z</time></trkpt><trkpt lat="45.76880172526841" lon="8.74370600896562"><ele>339.0</ele><time>2026-04-22T16:02:45.981Z</time></trkpt><trkpt lat="45.76874874788646" lon="8.743655932432294"><ele>339.0</ele><time>2026-04-22T16:02:51.981Z</time></trkpt><trkpt lat="45.76868581946273" lon="8.74361900890163"><ele>339.0</ele><time>2026-04-22T16:03:00.981Z</time></trkpt><trkpt lat="45.76863174408771" lon="8.743549872030906"><ele>339.0</ele><time>2026-04-22T16:03:08.981Z</time></trkpt><trkpt lat="45.7685810759055" lon="8.743457211769302"><ele>339.0</ele><time>2026-04-22T16:03:37.981Z</time></trkpt><trkpt lat="45.76852003229939" lon="8.743419794074732"><ele>338.85714285714283</ele><time>2026-04-22T16:03:43.981Z</time></trkpt><trkpt lat="45.76843791486317" lon="8.743442297871999"><ele>338.7142857142857</ele><time>2026-04-22T16:03:47.981Z</time></trkpt><trkpt lat="45.76837123876779" lon="8.743464544958414"><ele>338.57142857142856</ele><time>2026-04-22T16:03:50.981Z</time></trkpt><trkpt lat="45.768306928688276" lon="8.743482839042041"><ele>338.42857142857144</ele><time>2026-04-22T16:03:53.981Z</time></trkpt><trkpt lat="45.76824390045846" lon="8.743510775324548"><ele>338.2857142857143</ele><time>2026-04-22T16:03:56.983Z</time></trkpt><trkpt lat="45.768179725222694" lon="8.74352803774205"><ele>338.14285714285717</ele><time>2026-04-22T16:03:58.983Z</time></trkpt><trkpt lat="45.768096296161424" lon="8.74356185122242"><ele>338.0</ele><time>2026-04-22T16:04:01.982Z</time></trkpt><trkpt lat="45.76802962986315" lon="8.743598855419194"><ele>338.0</ele><time>2026-04-22T16:04:03.983Z</time></trkpt><trkpt lat="45.76794069055031" lon="8.743652972735267"><ele>338.0</ele><time>2026-04-22T16:04:06.982Z</time></trkpt><trkpt lat="45.767861632506154" lon="8.743709242535795"><ele>338.0</ele><time>2026-04-22T16:04:09.983Z</time></trkpt><trkpt lat="45.767780208190004" lon="8.74377078416648"><ele>338.0</ele><time>2026-04-22T16:04:12.983Z</time></trkpt><trkpt lat="45.76769486552377" lon="8.743840498968941"><ele>338.0</ele><time>2026-04-22T16:04:15.983Z</time></trkpt><trkpt lat="45.76762028564715" lon="8.743895346156194"><ele>338.6666666666667</ele><time>2026-04-22T16:04:18.983Z</time></trkpt><trkpt lat="45.76753661910093" lon="8.743919238427571"><ele>339.33333333333337</ele><time>2026-04-22T16:04:22.983Z</time></trkpt><trkpt lat="45.767463230658066" lon="8.743954369313188"><ele>340.0</ele><time>2026-04-22T16:04:25.983Z</time></trkpt><trkpt lat="45.76739268726545" lon="8.744001653136305"><ele>340.6666666666667</ele><time>2026-04-22T16:04:28.983Z</time></trkpt><trkpt lat="45.767319173168616" lon="8.744052854414226"><ele>341.3333333333333</ele><time>2026-04-22T16:04:31.983Z</time></trkpt><trkpt lat="45.767242043673846" lon="8.744106724546528"><ele>342.0</ele><time>2026-04-22T16:04:34.983Z</time></trkpt><trkpt lat="45.76717838003088" lon="8.744165494879544"><ele>342.0</ele><time>2026-04-22T16:04:37.983Z</time></trkpt><trkpt lat="45.76711733022125" lon="8.744218601974278"><ele>342.0</ele><time>2026-04-22T16:04:40.983Z</time></trkpt><trkpt lat="45.76704017901345" lon="8.74426824720106"><ele>342.0</ele><time>2026-04-22T16:04:44.983Z</time></trkpt><trkpt lat="45.76696049594584" lon="8.7442662533042"><ele>342.0</ele><time>2026-04-22T16:04:48.983Z</time></trkpt><trkpt lat="45.7668930464526" lon="8.744241388815562"><ele>342.0</ele><time>2026-04-22T16:04:51.983Z</time></trkpt><trkpt lat="45.76681904796577" lon="8.744202732019138"><ele>342.0</ele><time>2026-04-22T16:04:55.982Z</time></trkpt><trkpt lat="45.76674862987013" lon="8.744188095287392"><ele>342.4285714285714</ele><time>2026-04-22T16:04:58.982Z</time></trkpt><trkpt lat="45.76668850621342" lon="8.74415191364921"><ele>342.85714285714283</ele><time>2026-04-22T16:05:01.982Z</time></trkpt><trkpt lat="45.76664268039443" lon="8.74408925057966"><ele>343.2857142857143</ele><time>2026-04-22T16:05:05.982Z</time></trkpt><trkpt lat="45.766583919314655" lon="8.74403699205317"><ele>343.71428571428567</ele><time>2026-04-22T16:05:44.982Z</time></trkpt><trkpt lat="45.76661056648396" lon="8.743950932084925"><ele>344.1428571428571</ele><time>2026-04-22T16:05:49.982Z</time></trkpt><trkpt lat="45.76658994372828" lon="8.743862608103067"><ele>344.57142857142856</ele><time>2026-04-22T16:06:05.983Z</time></trkpt><trkpt lat="45.76653570672781" lon="8.743808337342658"><ele>345.0</ele><time>2026-04-22T16:06:12.983Z</time></trkpt><trkpt lat="45.766483651361014" lon="8.743713445753801"><ele>345.0</ele><time>2026-04-22T16:06:17.983Z</time></trkpt><trkpt lat="45.76643274940249" lon="8.743629663021958"><ele>345.0</ele><time>2026-04-22T16:06:24.983Z</time></trkpt><trkpt lat="45.76638787304302" lon="8.743555666264065"><ele>345.0</ele><time>2026-04-22T16:06:30.983Z</time></trkpt><trkpt lat="45.76633309680201" lon="8.743491790810866"><ele>345.0</ele><time>2026-04-22T16:06:39.982Z</time></trkpt><trkpt lat="45.7663143216444" lon="8.74340285263637"><ele>345.0</ele><time>2026-04-22T16:06:45.982Z</time></trkpt><trkpt lat="45.76632958538383" lon="8.743305856691297"><ele>345.0</ele><time>2026-04-22T16:06:52.982Z</time></trkpt><trkpt lat="45.76636977698376" lon="8.74323050157753"><ele>345.0</ele><time>2026-04-22T16:06:58.982Z</time></trkpt><trkpt lat="45.766428923555466" lon="8.7431731486322"><ele>346.42857142857144</ele><time>2026-04-22T16:07:04.982Z</time></trkpt><trkpt lat="45.766490660532966" lon="8.743124317195974"><ele>347.85714285714283</ele><time>2026-04-22T16:07:10.982Z</time></trkpt><trkpt lat="45.76655071236136" lon="8.743066698422666"><ele>349.2857142857143</ele><time>2026-04-22T16:07:16.982Z</time></trkpt><trkpt lat="45.766595653871505" lon="8.742987501338023"><ele>350.7142857142857</ele><time>2026-04-22T16:07:22.982Z</time></trkpt><trkpt lat="45.76661664688039" lon="8.742891967394613"><ele>352.14285714285717</ele><time>2026-04-22T16:07:28.982Z</time></trkpt><trkpt lat="45.766625359864236" lon="8.742788594701722"><ele>353.57142857142856</ele><time>2026-04-22T16:07:34.982Z</time></trkpt><trkpt lat="45.76662783390674" lon="8.742690829178477"><ele>355.0</ele><time>2026-04-22T16:07:39.982Z</time></trkpt><trkpt lat="45.76663552692567" lon="8.742598432391803"><ele>356.2857142857143</ele><time>2026-04-22T16:07:44.982Z</time></trkpt><trkpt lat="45.766642189991195" lon="8.742507449541856"><ele>357.57142857142856</ele><time>2026-04-22T16:07:49.982Z</time></trkpt><trkpt lat="45.76664785959364" lon="8.74241396624652"><ele>358.8571428571429</ele><time>2026-04-22T16:07:54.982Z</time></trkpt><trkpt lat="45.76661624772029" lon="8.74231483026541"><ele>360.1428571428571</ele><time>2026-04-22T16:08:02.982Z</time></trkpt><trkpt lat="45.76666095118634" lon="8.742238385369351"><ele>361.42857142857144</ele><time>2026-04-22T16:10:22.983Z</time></trkpt><trkpt lat="45.76670770193395" lon="8.742153581973826"><ele>362.7142857142857</ele><time>2026-04-22T16:10:42.983Z</time></trkpt><trkpt lat="45.76673782325401" lon="8.742073012694677"><ele>364.0</ele><time>2026-04-22T16:10:50.983Z</time></trkpt><trkpt lat="45.76674925384598" lon="8.74197134551943"><ele>364.0</ele><time>2026-04-22T16:10:58.983Z</time></trkpt><trkpt lat="45.76677958580177" lon="8.74188245242784"><ele>364.0</ele><time>2026-04-22T16:11:04.983Z</time></trkpt><trkpt lat="45.766805753770115" lon="8.741791537856342"><ele>364.0</ele><time>2026-04-22T16:11:09.983Z</time></trkpt><trkpt lat="45.76683758342157" lon="8.741690050602223"><ele>364.0</ele><time>2026-04-22T16:11:15.983Z</time></trkpt><trkpt lat="45.76683360436396" lon="8.741583515841246"><ele>364.0</ele><time>2026-04-22T16:11:30.982Z</time></trkpt><trkpt lat="45.76685902086635" lon="8.741499248828497"><ele>364.0</ele><time>2026-04-22T16:11:36.982Z</time></trkpt><trkpt lat="45.76688317237294" lon="8.741408730800716"><ele>364.0</ele><time>2026-04-22T16:11:42.982Z</time></trkpt><trkpt lat="45.76691674724885" lon="8.74131937608032"><ele>365.57142857142856</ele><time>2026-04-22T16:11:47.982Z</time></trkpt><trkpt lat="45.76695449921939" lon="8.741215133592503"><ele>367.1428571428571</ele><time>2026-04-22T16:11:54.982Z</time></trkpt><trkpt lat="45.76700096163218" lon="8.741146136360706"><ele>368.7142857142857</ele><time>2026-04-22T16:11:59.982Z</time></trkpt><trkpt lat="45.767034361201574" lon="8.74106233029524"><ele>370.2857142857143</ele><time>2026-04-22T16:12:05.982Z</time></trkpt><trkpt lat="45.76707608744796" lon="8.740992406061725"><ele>371.85714285714283</ele><time>2026-04-22T16:12:11.982Z</time></trkpt><trkpt lat="45.76712459663425" lon="8.740924853459308"><ele>373.42857142857144</ele><time>2026-04-22T16:12:18.984Z</time></trkpt><trkpt lat="45.767158484212054" lon="8.740830705107374"><ele>375.0</ele><time>2026-04-22T16:15:08.984Z</time></trkpt><trkpt lat="45.76717293785249" lon="8.740741959479445"><ele>375.5714285714286</ele><time>2026-04-22T16:15:13.984Z</time></trkpt><trkpt lat="45.767195713223025" lon="8.74064207597154"><ele>376.1428571428571</ele><time>2026-04-22T16:15:18.984Z</time></trkpt><trkpt lat="45.76722270993445" lon="8.740546403809015"><ele>376.7142857142857</ele><time>2026-04-22T16:15:23.984Z</time></trkpt><trkpt lat="45.767253997197464" lon="8.740466148029917"><ele>377.28571428571433</ele><time>2026-04-22T16:15:27.984Z</time></trkpt><trkpt lat="45.76730514804349" lon="8.740400975357444"><ele>377.8571428571429</ele><time>2026-04-22T16:15:32.984Z</time></trkpt><trkpt lat="45.76736128696685" lon="8.740334213345907"><ele>378.42857142857144</ele><time>2026-04-22T16:15:37.983Z</time></trkpt><trkpt lat="45.767426795983745" lon="8.74031548776896"><ele>379.0</ele><time>2026-04-22T16:15:45.983Z</time></trkpt><trkpt lat="45.76748123744701" lon="8.740252839909633"><ele>379.0</ele><time>2026-04-22T16:15:54.983Z</time></trkpt><trkpt lat="45.76741108098831" lon="8.740276759400029"><ele>379.0</ele><time>2026-04-22T16:16:47.984Z</time></trkpt><trkpt lat="45.767335684323776" lon="8.740289708913597"><ele>379.0</ele><time>2026-04-22T16:16:51.984Z</time></trkpt><trkpt lat="45.76727223968064" lon="8.740365576401876"><ele>379.0</ele><time>2026-04-22T16:16:57.984Z</time></trkpt><trkpt lat="45.767219247006565" lon="8.740482470935762"><ele>379.0</ele><time>2026-04-22T16:17:00.984Z</time></trkpt><trkpt lat="45.767185263708235" lon="8.74056684531507"><ele>379.0</ele><time>2026-04-22T16:17:02.984Z</time></trkpt><trkpt lat="45.76716189271702" lon="8.740652261516821"><ele>379.00000000000006</ele><time>2026-04-22T16:17:04.984Z</time></trkpt><trkpt lat="45.76713506988201" lon="8.74076982634345"><ele>379.0</ele><time>2026-04-22T16:17:07.984Z</time></trkpt><trkpt lat="45.76707533979107" lon="8.740798577202375"><ele>379.0</ele><time>2026-04-22T16:17:10.984Z</time></trkpt><trkpt lat="45.767023468736596" lon="8.740741824564365"><ele>379.0</ele><time>2026-04-22T16:17:13.983Z</time></trkpt><trkpt lat="45.76696157606787" lon="8.74068602969645"><ele>379.0</ele><time>2026-04-22T16:17:16.983Z</time></trkpt><trkpt lat="45.7668976503796" lon="8.740615540646163"><ele>379.00000000000006</ele><time>2026-04-22T16:17:20.983Z</time></trkpt><trkpt lat="45.76685222320707" lon="8.740521044136303"><ele>379.0</ele><time>2026-04-22T16:17:24.983Z</time></trkpt><trkpt lat="45.766810901615926" lon="8.740432764477314"><ele>378.8333333333333</ele><time>2026-04-22T16:17:27.983Z</time></trkpt><trkpt lat="45.766756907013196" lon="8.740359182552217"><ele>378.66666666666663</ele><time>2026-04-22T16:17:31.983Z</time></trkpt><trkpt lat="45.76669083143019" lon="8.740284036827044"><ele>378.5</ele><time>2026-04-22T16:17:35.983Z</time></trkpt><trkpt lat="45.76663624025228" lon="8.74022203877916"><ele>378.3333333333333</ele><time>2026-04-22T16:17:37.983Z</time></trkpt><trkpt lat="45.766578063596064" lon="8.740122441961235"><ele>378.1666666666667</ele><time>2026-04-22T16:17:40.983Z</time></trkpt><trkpt lat="45.76652604947645" lon="8.740017886169186"><ele>378.0</ele><time>2026-04-22T16:17:43.983Z</time></trkpt><trkpt lat="45.766487260018536" lon="8.739934140991695"><ele>378.0</ele><time>2026-04-22T16:17:46.983Z</time></trkpt><trkpt lat="45.766443227373074" lon="8.739834975619047"><ele>378.0</ele><time>2026-04-22T16:17:49.983Z</time></trkpt><trkpt lat="45.76642590414704" lon="8.739741886805923"><ele>378.0</ele><time>2026-04-22T16:17:52.983Z</time></trkpt><trkpt lat="45.76638497608793" lon="8.739640398321747"><ele>378.0</ele><time>2026-04-22T16:17:56.983Z</time></trkpt><trkpt lat="45.76636112359594" lon="8.739546273333254"><ele>378.0</ele><time>2026-04-22T16:17:59.983Z</time></trkpt><trkpt lat="45.76634941150538" lon="8.739433214021638"><ele>378.0</ele><time>2026-04-22T16:18:03.983Z</time></trkpt><trkpt lat="45.76632842209943" lon="8.739322992065023"><ele>378.42857142857144</ele><time>2026-04-22T16:18:07.983Z</time></trkpt><trkpt lat="45.766302089900066" lon="8.739239266511099"><ele>378.8571428571429</ele><time>2026-04-22T16:18:11.983Z</time></trkpt><trkpt lat="45.76627424646364" lon="8.739142744619391"><ele>379.2857142857143</ele><time>2026-04-22T16:18:15.983Z</time></trkpt><trkpt lat="45.7662498717159" lon="8.739057858248506"><ele>379.7142857142857</ele><time>2026-04-22T16:18:20.983Z</time></trkpt><trkpt lat="45.766214445056825" lon="8.738976418544944"><ele>380.14285714285717</ele><time>2026-04-22T16:18:57.984Z</time></trkpt><trkpt lat="45.76620505959865" lon="8.738874839074716"><ele>380.57142857142856</ele><time>2026-04-22T16:19:02.984Z</time></trkpt><trkpt lat="45.76619827239596" lon="8.738776732628022"><ele>381.0</ele><time>2026-04-22T16:19:06.984Z</time></trkpt><trkpt lat="45.76619881834155" lon="8.738676029816228"><ele>380.8333333333333</ele><time>2026-04-22T16:20:17.983Z</time></trkpt><trkpt lat="45.76618972054132" lon="8.738547193699166"><ele>380.6666666666667</ele><time>2026-04-22T16:20:21.983Z</time></trkpt><trkpt lat="45.76617818103733" lon="8.738429393387595"><ele>380.5</ele><time>2026-04-22T16:20:24.983Z</time></trkpt><trkpt lat="45.76617075514603" lon="8.738334358069533"><ele>380.33333333333337</ele><time>2026-04-22T16:20:27.983Z</time></trkpt><trkpt lat="45.766162252232924" lon="8.738235051175463"><ele>380.1666666666667</ele><time>2026-04-22T16:20:30.983Z</time></trkpt><trkpt lat="45.766082248312486" lon="8.738174589336056"><ele>380.0</ele><time>2026-04-22T16:20:33.983Z</time></trkpt><trkpt lat="45.76602171716016" lon="8.738142751896442"><ele>379.5</ele><time>2026-04-22T16:20:35.983Z</time></trkpt><trkpt lat="45.76593810897988" lon="8.738122418686016"><ele>379.0</ele><time>2026-04-22T16:20:38.983Z</time></trkpt><trkpt lat="45.765883161135704" lon="8.738075562802935"><ele>378.5</ele><time>2026-04-22T16:20:40.985Z</time></trkpt><trkpt lat="45.7658324476438" lon="8.738019298078676"><ele>378.0</ele><time>2026-04-22T16:20:42.984Z</time></trkpt><trkpt lat="45.76577601002675" lon="8.73794936731049"><ele>377.5</ele><time>2026-04-22T16:20:45.984Z</time></trkpt><trkpt lat="45.7657224301361" lon="8.737885482887842"><ele>377.0</ele><time>2026-04-22T16:20:48.984Z</time></trkpt><trkpt lat="45.76563454393446" lon="8.737813692616848"><ele>376.99999999999994</ele><time>2026-04-22T16:20:51.984Z</time></trkpt><trkpt lat="45.76558348146094" lon="8.737753402317203"><ele>377.0</ele><time>2026-04-22T16:20:53.985Z</time></trkpt><trkpt lat="45.76552586243482" lon="8.737679391906871"><ele>377.0</ele><time>2026-04-22T16:20:55.985Z</time></trkpt><trkpt lat="45.76546617579651" lon="8.737621656701716"><ele>377.0</ele><time>2026-04-22T16:20:57.984Z</time></trkpt><trkpt lat="45.76540999629455" lon="8.737553847834226"><ele>377.0</ele><time>2026-04-22T16:21:00.984Z</time></trkpt><trkpt lat="45.765373654634864" lon="8.737472633781406"><ele>376.99999999999994</ele><time>2026-04-22T16:21:15.984Z</time></trkpt><trkpt lat="45.765311771818126" lon="8.73740272202557"><ele>377.0</ele><time>2026-04-22T16:21:24.984Z</time></trkpt><trkpt lat="45.765247075715166" lon="8.73736816937915"><ele>376.71428571428567</ele><time>2026-04-22T16:21:28.984Z</time></trkpt><trkpt lat="45.76518345746366" lon="8.73733668693493"><ele>376.42857142857144</ele><time>2026-04-22T16:21:33.984Z</time></trkpt><trkpt lat="45.765141513431495" lon="8.737262647456733"><ele>376.1428571428571</ele><time>2026-04-22T16:21:41.984Z</time></trkpt><trkpt lat="45.76518709558905" lon="8.737341455677104"><ele>375.85714285714283</ele><time>2026-04-22T16:21:52.984Z</time></trkpt><trkpt lat="45.765238461898775" lon="8.73740309746755"><ele>375.57142857142856</ele><time>2026-04-22T16:21:58.984Z</time></trkpt><trkpt lat="45.76530414498194" lon="8.73745233749853"><ele>375.2857142857143</ele><time>2026-04-22T16:22:03.984Z</time></trkpt><trkpt lat="45.76536104997278" lon="8.737347586924074"><ele>375.0</ele><time>2026-04-22T16:22:07.984Z</time></trkpt><trkpt lat="45.76540520739627" lon="8.73724337991103"><ele>375.0</ele><time>2026-04-22T16:22:10.984Z</time></trkpt><trkpt lat="45.76541724415176" lon="8.73715193756302"><ele>375.0</ele><time>2026-04-22T16:22:12.984Z</time></trkpt><trkpt lat="45.76545886332861" lon="8.737043526795278"><ele>375.0</ele><time>2026-04-22T16:22:15.984Z</time></trkpt><trkpt lat="45.765484296088" lon="8.73694984487119"><ele>375.0</ele><time>2026-04-22T16:22:17.984Z</time></trkpt><trkpt lat="45.765531579135676" lon="8.736847707453016"><ele>375.0</ele><time>2026-04-22T16:22:20.984Z</time></trkpt><trkpt lat="45.76555179406273" lon="8.73673789855044"><ele>375.0</ele><time>2026-04-22T16:22:24.984Z</time></trkpt><trkpt lat="45.76553518220634" lon="8.7366406150416"><ele>375.42857142857144</ele><time>2026-04-22T16:22:46.985Z</time></trkpt><trkpt lat="45.76548953459286" lon="8.736566610349737"><ele>375.85714285714283</ele><time>2026-04-22T16:22:50.985Z</time></trkpt><trkpt lat="45.76542857380293" lon="8.736534187461874"><ele>376.2857142857143</ele><time>2026-04-22T16:22:54.984Z</time></trkpt><trkpt lat="45.76536621169838" lon="8.736502853654496"><ele>376.7142857142857</ele><time>2026-04-22T16:22:57.984Z</time></trkpt><trkpt lat="45.76529525732333" lon="8.736440432647521"><ele>377.1428571428571</ele><time>2026-04-22T16:23:02.984Z</time></trkpt><trkpt lat="45.765245043328875" lon="8.736384784396213"><ele>377.57142857142856</ele><time>2026-04-22T16:23:07.984Z</time></trkpt><trkpt lat="45.76517629828546" lon="8.736299740581073"><ele>378.0</ele><time>2026-04-22T16:23:11.984Z</time></trkpt><trkpt lat="45.76511732858483" lon="8.736245270885071"><ele>378.0</ele><time>2026-04-22T16:23:14.984Z</time></trkpt><trkpt lat="45.76504418276749" lon="8.736199693015454"><ele>378.0</ele><time>2026-04-22T16:23:19.984Z</time></trkpt><trkpt lat="45.76498535277486" lon="8.736153559115234"><ele>378.0</ele><time>2026-04-22T16:23:23.983Z</time></trkpt><trkpt lat="45.76491272886458" lon="8.736087241719035"><ele>378.0</ele><time>2026-04-22T16:23:27.983Z</time></trkpt><trkpt lat="45.764844822845895" lon="8.736049465085353"><ele>378.0</ele><time>2026-04-22T16:23:31.983Z</time></trkpt><trkpt lat="45.76477477639742" lon="8.736020175990722"><ele>378.0</ele><time>2026-04-22T16:23:35.983Z</time></trkpt><trkpt lat="45.76469903761569" lon="8.735978120413279"><ele>376.2857142857143</ele><time>2026-04-22T16:23:39.983Z</time></trkpt><trkpt lat="45.76462803625397" lon="8.735973130447011"><ele>374.57142857142856</ele><time>2026-04-22T16:23:44.983Z</time></trkpt><trkpt lat="45.76455688765565" lon="8.735931265964753"><ele>372.8571428571429</ele><time>2026-04-22T16:23:49.983Z</time></trkpt><trkpt lat="45.76448508990525" lon="8.735889232819238"><ele>371.1428571428571</ele><time>2026-04-22T16:23:53.983Z</time></trkpt><trkpt lat="45.764416538382555" lon="8.735859241910843"><ele>369.42857142857144</ele><time>2026-04-22T16:23:57.983Z</time></trkpt><trkpt lat="45.76435962975995" lon="8.735807618798953"><ele>367.7142857142857</ele><time>2026-04-22T16:24:01.983Z</time></trkpt><trkpt lat="45.76429772477107" lon="8.735764206345795"><ele>366.0</ele><time>2026-04-22T16:24:05.983Z</time></trkpt><trkpt lat="45.76425659700036" lon="8.735690553679385"><ele>366.0</ele><time>2026-04-22T16:24:09.983Z</time></trkpt><trkpt lat="45.76418888836427" lon="8.735641703295864"><ele>366.0</ele><time>2026-04-22T16:24:17.982Z</time></trkpt><trkpt lat="45.76413651813855" lon="8.735579636566118"><ele>366.0</ele><time>2026-04-22T16:24:21.982Z</time></trkpt><trkpt lat="45.764089425473045" lon="8.73551551077759"><ele>366.0</ele><time>2026-04-22T16:24:25.982Z</time></trkpt><trkpt lat="45.76404264847704" lon="8.73545470803779"><ele>366.0</ele><time>2026-04-22T16:24:28.982Z</time></trkpt><trkpt lat="45.76397381094203" lon="8.735406064082678"><ele>366.0</ele><time>2026-04-22T16:24:33.982Z</time></trkpt><trkpt lat="45.76391155440165" lon="8.735349065932933"><ele>366.0</ele><time>2026-04-22T16:24:38.982Z</time></trkpt><trkpt lat="45.763847042577844" lon="8.735316009576866"><ele>366.0</ele><time>2026-04-22T16:24:43.982Z</time></trkpt><trkpt lat="45.763786660061704" lon="8.735269280422584"><ele>366.0</ele><time>2026-04-22T16:24:48.982Z</time></trkpt><trkpt lat="45.76372361942365" lon="8.735232833745714"><ele>366.0</ele><time>2026-04-22T16:24:52.984Z</time></trkpt><trkpt lat="45.76366576795505" lon="8.735186761904231"><ele>366.0</ele><time>2026-04-22T16:24:55.985Z</time></trkpt><trkpt lat="45.76358870622998" lon="8.735155640836066"><ele>366.0</ele><time>2026-04-22T16:24:59.984Z</time></trkpt><trkpt lat="45.763506699193556" lon="8.73515491215173"><ele>366.0</ele><time>2026-04-22T16:25:04.984Z</time></trkpt><trkpt lat="45.76344132381361" lon="8.73517683619886"><ele>366.0</ele><time>2026-04-22T16:25:08.984Z</time></trkpt><trkpt lat="45.763374193378496" lon="8.735170972499025"><ele>365.14285714285717</ele><time>2026-04-22T16:25:13.984Z</time></trkpt><trkpt lat="45.763304227855805" lon="8.735147360125225"><ele>364.28571428571433</ele><time>2026-04-22T16:25:17.984Z</time></trkpt><trkpt lat="45.76324020347959" lon="8.735154229347524"><ele>363.42857142857144</ele><time>2026-04-22T16:25:21.984Z</time></trkpt><trkpt lat="45.76316740386328" lon="8.735164272903708"><ele>362.57142857142856</ele><time>2026-04-22T16:25:26.983Z</time></trkpt><trkpt lat="45.76310219809577" lon="8.735180894049911"><ele>361.7142857142857</ele><time>2026-04-22T16:25:28.983Z</time></trkpt><trkpt lat="45.76303471809228" lon="8.735211782926624"><ele>360.85714285714283</ele><time>2026-04-22T16:25:31.983Z</time></trkpt><trkpt lat="45.76296638094144" lon="8.735218216764519"><ele>360.0</ele><time>2026-04-22T16:25:35.983Z</time></trkpt><trkpt lat="45.76288094380423" lon="8.735228733931164"><ele>360.0</ele><time>2026-04-22T16:25:38.983Z</time></trkpt><trkpt lat="45.762811995771344" lon="8.735250547274292"><ele>360.0</ele><time>2026-04-22T16:25:40.983Z</time></trkpt><trkpt lat="45.76275148177676" lon="8.735297776928768"><ele>360.0</ele><time>2026-04-22T16:25:44.983Z</time></trkpt><trkpt lat="45.76267764206067" lon="8.735346514116632"><ele>360.0</ele><time>2026-04-22T16:25:48.983Z</time></trkpt><trkpt lat="45.76260769031663" lon="8.735409735369116"><ele>360.0</ele><time>2026-04-22T16:25:52.983Z</time></trkpt><trkpt lat="45.762545011473215" lon="8.735454259882989"><ele>360.0</ele><time>2026-04-22T16:25:55.983Z</time></trkpt><trkpt lat="45.76247838273408" lon="8.735489470264437"><ele>360.0</ele><time>2026-04-22T16:25:58.983Z</time></trkpt><trkpt lat="45.76241238995849" lon="8.73554031762197"><ele>358.5</ele><time>2026-04-22T16:26:02.983Z</time></trkpt><trkpt lat="45.76234806726809" lon="8.735571253470773"><ele>357.0</ele><time>2026-04-22T16:26:06.983Z</time></trkpt><trkpt lat="45.762288844366886" lon="8.735607285293288"><ele>355.5</ele><time>2026-04-22T16:26:09.983Z</time></trkpt><trkpt lat="45.76220879556592" lon="8.735644741063389"><ele>354.0</ele><time>2026-04-22T16:26:13.983Z</time></trkpt><trkpt lat="45.76214031069101" lon="8.735687492795924"><ele>352.5</ele><time>2026-04-22T16:26:17.983Z</time></trkpt><trkpt lat="45.762067038034736" lon="8.735744383316606"><ele>351.0</ele><time>2026-04-22T16:26:20.983Z</time></trkpt><trkpt lat="45.76199383279948" lon="8.73576901957887"><ele>351.0</ele><time>2026-04-22T16:26:38.983Z</time></trkpt><trkpt lat="45.76191655280992" lon="8.735721427821137"><ele>351.0</ele><time>2026-04-22T16:26:42.983Z</time></trkpt><trkpt lat="45.761841724478366" lon="8.735665210621717"><ele>351.0</ele><time>2026-04-22T16:26:45.983Z</time></trkpt><trkpt lat="45.76176561508593" lon="8.735633100003028"><ele>351.0</ele><time>2026-04-22T16:26:48.983Z</time></trkpt><trkpt lat="45.76169263378041" lon="8.735619184098631"><ele>351.0</ele><time>2026-04-22T16:26:50.983Z</time></trkpt><trkpt lat="45.76162010525712" lon="8.735548628323828"><ele>351.0</ele><time>2026-04-22T16:26:53.983Z</time></trkpt><trkpt lat="45.76159006688089" lon="8.735467495244036"><ele>349.6666666666667</ele><time>2026-04-22T16:26:55.983Z</time></trkpt><trkpt lat="45.76155354582181" lon="8.735380361136347"><ele>348.3333333333333</ele><time>2026-04-22T16:26:58.985Z</time></trkpt><trkpt lat="45.76150005887002" lon="8.735300383560947"><ele>347.0</ele><time>2026-04-22T16:27:01.984Z</time></trkpt><trkpt lat="45.76153542355738" lon="8.735216458584016"><ele>345.66666666666663</ele><time>2026-04-22T16:27:08.985Z</time></trkpt><trkpt lat="45.76160851010506" lon="8.735189121637575"><ele>344.3333333333333</ele><time>2026-04-22T16:27:11.984Z</time></trkpt><trkpt lat="45.76168538208694" lon="8.73514381078926"><ele>343.0</ele><time>2026-04-22T16:27:14.984Z</time></trkpt><trkpt lat="45.76176201784264" lon="8.735117655538154"><ele>343.16666666666663</ele><time>2026-04-22T16:27:17.984Z</time></trkpt><trkpt lat="45.76183435280168" lon="8.735086224124528"><ele>343.3333333333333</ele><time>2026-04-22T16:27:20.984Z</time></trkpt><trkpt lat="45.761919658965816" lon="8.735060255795435"><ele>343.5</ele><time>2026-04-22T16:27:23.984Z</time></trkpt><trkpt lat="45.76201610993855" lon="8.735036636138588"><ele>343.6666666666667</ele><time>2026-04-22T16:27:26.984Z</time></trkpt><trkpt lat="45.76209729034555" lon="8.73501942078771"><ele>343.83333333333337</ele><time>2026-04-22T16:27:29.984Z</time></trkpt><trkpt lat="45.76218450819265" lon="8.73498175294149"><ele>344.0</ele><time>2026-04-22T16:27:32.984Z</time></trkpt><trkpt lat="45.76224832876863" lon="8.734945780551229"><ele>344.0</ele><time>2026-04-22T16:27:35.984Z</time></trkpt><trkpt lat="45.76231580634717" lon="8.734877118829045"><ele>344.0</ele><time>2026-04-22T16:27:38.984Z</time></trkpt><trkpt lat="45.762384869975634" lon="8.734842421297936"><ele>344.0</ele><time>2026-04-22T16:27:41.984Z</time></trkpt><trkpt lat="45.76244683515311" lon="8.734819107308796"><ele>344.0</ele><time>2026-04-22T16:27:43.984Z</time></trkpt><trkpt lat="45.762518791253164" lon="8.734763409284264"><ele>344.0</ele><time>2026-04-22T16:27:46.984Z</time></trkpt><trkpt lat="45.762578516800026" lon="8.73470269689829"><ele>344.0</ele><time>2026-04-22T16:27:49.984Z</time></trkpt><trkpt lat="45.762650081210516" lon="8.734626168229992"><ele>343.33333333333337</ele><time>2026-04-22T16:27:52.984Z</time></trkpt><trkpt lat="45.762716402253545" lon="8.734556096394767"><ele>342.6666666666667</ele><time>2026-04-22T16:27:55.984Z</time></trkpt><trkpt lat="45.76278349240748" lon="8.73448473376918"><ele>342.0</ele><time>2026-04-22T16:27:57.984Z</time></trkpt><trkpt lat="45.76285805611411" lon="8.73443741579779"><ele>341.3333333333333</ele><time>2026-04-22T16:28:00.984Z</time></trkpt><trkpt lat="45.762916816576535" lon="8.734382256238415"><ele>340.66666666666663</ele><time>2026-04-22T16:28:02.984Z</time></trkpt><trkpt lat="45.76298285096438" lon="8.734309064623078"><ele>340.0</ele><time>2026-04-22T16:28:04.984Z</time></trkpt><trkpt lat="45.7630563036246" lon="8.734237864762553"><ele>340.0</ele><time>2026-04-22T16:28:06.984Z</time></trkpt><trkpt lat="45.763135953425" lon="8.734208523532681"><ele>340.0</ele><time>2026-04-22T16:28:08.984Z</time></trkpt><trkpt lat="45.76319003477816" lon="8.734116106633879"><ele>340.0</ele><time>2026-04-22T16:28:11.984Z</time></trkpt><trkpt lat="45.763291488475296" lon="8.73405877714599"><ele>340.0</ele><time>2026-04-22T16:28:15.984Z</time></trkpt><trkpt lat="45.763373961991114" lon="8.73400844597468"><ele>340.0</ele><time>2026-04-22T16:28:18.984Z</time></trkpt><trkpt lat="45.76343392377139" lon="8.73396095480655"><ele>340.0</ele><time>2026-04-22T16:28:21.984Z</time></trkpt><trkpt lat="45.7634962495154" lon="8.733895097915328"><ele>340.66666666666663</ele><time>2026-04-22T16:28:25.984Z</time></trkpt><trkpt lat="45.76356069635983" lon="8.733859204772276"><ele>341.3333333333333</ele><time>2026-04-22T16:29:02.983Z</time></trkpt><trkpt lat="45.76364256241696" lon="8.733814928567428"><ele>342.0</ele><time>2026-04-22T16:29:06.985Z</time></trkpt><trkpt lat="45.763697659493666" lon="8.733724804098182"><ele>342.6666666666667</ele><time>2026-04-22T16:29:09.985Z</time></trkpt><trkpt lat="45.76374113801096" lon="8.733650419653795"><ele>343.33333333333337</ele><time>2026-04-22T16:29:12.985Z</time></trkpt><trkpt lat="45.763796807860196" lon="8.733550336403765"><ele>344.0</ele><time>2026-04-22T16:29:15.985Z</time></trkpt><trkpt lat="45.76384039282836" lon="8.733481515355574"><ele>344.0</ele><time>2026-04-22T16:29:17.985Z</time></trkpt><trkpt lat="45.76389206525879" lon="8.73341200008803"><ele>344.0</ele><time>2026-04-22T16:29:20.985Z</time></trkpt><trkpt lat="45.76396042942901" lon="8.733325678618593"><ele>344.0</ele><time>2026-04-22T16:29:23.985Z</time></trkpt><trkpt lat="45.76402937796641" lon="8.733252812875431"><ele>344.0</ele><time>2026-04-22T16:29:26.985Z</time></trkpt><trkpt lat="45.764068241449614" lon="8.733143339563807"><ele>344.0</ele><time>2026-04-22T16:29:29.985Z</time></trkpt><trkpt lat="45.764123460142685" lon="8.733076110245158"><ele>344.0</ele><time>2026-04-22T16:29:32.985Z</time></trkpt><trkpt lat="45.7641758453367" lon="8.732976368619592"><ele>344.0</ele><time>2026-04-22T16:29:35.985Z</time></trkpt><trkpt lat="45.76423986545059" lon="8.732894003984471"><ele>344.0</ele><time>2026-04-22T16:29:38.985Z</time></trkpt><trkpt lat="45.764286333836864" lon="8.732825428806501"><ele>344.0</ele><time>2026-04-22T16:29:40.985Z</time></trkpt><trkpt lat="45.76434721499994" lon="8.732751327962504"><ele>344.0</ele><time>2026-04-22T16:29:43.985Z</time></trkpt><trkpt lat="45.76441303111512" lon="8.732656605189435"><ele>344.0</ele><time>2026-04-22T16:29:46.985Z</time></trkpt><trkpt lat="45.76447882465396" lon="8.732571201450856"><ele>344.0</ele><time>2026-04-22T16:29:49.984Z</time></trkpt><trkpt lat="45.76454064270428" lon="8.732483329682232"><ele>345.1666666666667</ele><time>2026-04-22T16:29:52.984Z</time></trkpt><trkpt lat="45.76460579711902" lon="8.73240104977482"><ele>346.33333333333337</ele><time>2026-04-22T16:29:55.984Z</time></trkpt><trkpt lat="45.76467191252114" lon="8.732321543589212"><ele>347.5</ele><time>2026-04-22T16:29:58.984Z</time></trkpt><trkpt lat="45.764740554617546" lon="8.732244728585256"><ele>348.6666666666667</ele><time>2026-04-22T16:30:01.984Z</time></trkpt><trkpt lat="45.76479270632896" lon="8.732192664432619"><ele>349.8333333333333</ele><time>2026-04-22T16:30:03.984Z</time></trkpt><trkpt lat="45.764865035693006" lon="8.732121680927396"><ele>351.0</ele><time>2026-04-22T16:30:06.984Z</time></trkpt><trkpt lat="45.7649375943642" lon="8.732068443381298"><ele>351.0</ele><time>2026-04-22T16:30:09.984Z</time></trkpt><trkpt lat="45.765008277111725" lon="8.73199733972328"><ele>351.0</ele><time>2026-04-22T16:30:13.984Z</time></trkpt><trkpt lat="45.76508846045824" lon="8.731948709461465"><ele>351.0</ele><time>2026-04-22T16:30:16.984Z</time></trkpt><trkpt lat="45.765161881640424" lon="8.731905748606072"><ele>351.0</ele><time>2026-04-22T16:30:19.984Z</time></trkpt><trkpt lat="45.76524240417606" lon="8.731850372729285"><ele>351.0</ele><time>2026-04-22T16:30:22.984Z</time></trkpt><trkpt lat="45.76531357440566" lon="8.73179890173334"><ele>351.0</ele><time>2026-04-22T16:30:25.984Z</time></trkpt><trkpt lat="45.76539702814472" lon="8.731743315744657"><ele>349.5</ele><time>2026-04-22T16:30:28.984Z</time></trkpt><trkpt lat="45.76545829125718" lon="8.731704877307962"><ele>348.0</ele><time>2026-04-22T16:30:31.984Z</time></trkpt><trkpt lat="45.765531906126355" lon="8.731652105514632"><ele>346.5</ele><time>2026-04-22T16:30:34.984Z</time></trkpt><trkpt lat="45.76558418571559" lon="8.731595897739526"><ele>345.0</ele><time>2026-04-22T16:30:52.984Z</time></trkpt><trkpt lat="45.76564500373717" lon="8.731542326878605"><ele>343.5</ele><time>2026-04-22T16:31:02.984Z</time></trkpt><trkpt lat="45.76571658241099" lon="8.731530484747145"><ele>342.0</ele><time>2026-04-22T16:31:05.984Z</time></trkpt><trkpt lat="45.76580951903105" lon="8.73151545890293"><ele>341.99999999999994</ele><time>2026-04-22T16:31:09.985Z</time></trkpt><trkpt lat="45.76588577427555" lon="8.731498767417442"><ele>342.0</ele><time>2026-04-22T16:31:12.985Z</time></trkpt><trkpt lat="45.765960094617924" lon="8.73147644216994"><ele>342.0</ele><time>2026-04-22T16:31:15.986Z</time></trkpt><trkpt lat="45.76602709364971" lon="8.731469292525317"><ele>342.0</ele><time>2026-04-22T16:31:18.985Z</time></trkpt><trkpt lat="45.766113074778026" lon="8.731459390900014"><ele>342.0</ele><time>2026-04-22T16:31:22.985Z</time></trkpt><trkpt lat="45.76617948337686" lon="8.731448492575371"><ele>341.99999999999994</ele><time>2026-04-22T16:31:25.985Z</time></trkpt><trkpt lat="45.766248419093756" lon="8.731431933515195"><ele>342.0</ele><time>2026-04-22T16:31:28.985Z</time></trkpt><trkpt lat="45.766320074532146" lon="8.731409109238735"><ele>341.99999999999994</ele><time>2026-04-22T16:31:31.985Z</time></trkpt><trkpt lat="45.76639591708403" lon="8.73139145187754"><ele>342.0</ele><time>2026-04-22T16:31:34.985Z</time></trkpt><trkpt lat="45.7664609467678" lon="8.731351873656152"><ele>342.0</ele><time>2026-04-22T16:31:40.985Z</time></trkpt><trkpt lat="45.76652644080411" lon="8.7313239262654"><ele>342.0</ele><time>2026-04-22T16:31:47.985Z</time></trkpt><trkpt lat="45.76660294228176" lon="8.73129926758127"><ele>342.0</ele><time>2026-04-22T16:31:57.985Z</time></trkpt><trkpt lat="45.766591678875244" lon="8.731189143146695"><ele>341.99999999999994</ele><time>2026-04-22T16:32:08.985Z</time></trkpt><trkpt lat="45.76658789582247" lon="8.731097515985597"><ele>342.0</ele><time>2026-04-22T16:32:10.985Z</time></trkpt><trkpt lat="45.7666297489881" lon="8.730992596199041"><ele>342.0</ele><time>2026-04-22T16:32:13.985Z</time></trkpt><trkpt lat="45.76666770713425" lon="8.730870300532034"><ele>342.0</ele><time>2026-04-22T16:32:16.985Z</time></trkpt><trkpt lat="45.766700035699536" lon="8.730758450223494"><ele>342.0</ele><time>2026-04-22T16:32:19.985Z</time></trkpt><trkpt lat="45.76672588996136" lon="8.730665036553109"><ele>342.0</ele><time>2026-04-22T16:32:22.985Z</time></trkpt><trkpt lat="45.76676031173269" lon="8.73056705980766"><ele>342.0</ele><time>2026-04-22T16:32:25.984Z</time></trkpt><trkpt lat="45.766788159156796" lon="8.730441748346074"><ele>342.0</ele><time>2026-04-22T16:32:30.984Z</time></trkpt><trkpt lat="45.76682400311928" lon="8.730360308790425"><ele>342.0</ele><time>2026-04-22T16:32:35.984Z</time></trkpt><trkpt lat="45.76685726321609" lon="8.730269143650455"><ele>342.0</ele><time>2026-04-22T16:32:51.984Z</time></trkpt><trkpt lat="45.76688938961856" lon="8.730175658322702"><ele>342.0</ele><time>2026-04-22T16:32:54.984Z</time></trkpt><trkpt lat="45.76694324650817" lon="8.730084374787165"><ele>342.0</ele><time>2026-04-22T16:32:57.984Z</time></trkpt><trkpt lat="45.76699833713483" lon="8.7300090709458"><ele>342.0</ele><time>2026-04-22T16:33:00.984Z</time></trkpt><trkpt lat="45.767045355576926" lon="8.72992904611754"><ele>342.0</ele><time>2026-04-22T16:33:03.984Z</time></trkpt><trkpt lat="45.767052699736745" lon="8.729808380006219"><ele>343.3333333333333</ele><time>2026-04-22T16:33:06.984Z</time></trkpt><trkpt lat="45.767036413529375" lon="8.729701712591467"><ele>344.6666666666667</ele><time>2026-04-22T16:33:09.984Z</time></trkpt><trkpt lat="45.76699130351555" lon="8.729579758567326"><ele>346.0</ele><time>2026-04-22T16:33:12.984Z</time></trkpt><trkpt lat="45.76695418863294" lon="8.729502707451541"><ele>347.33333333333337</ele><time>2026-04-22T16:33:14.984Z</time></trkpt><trkpt lat="45.76691912261076" lon="8.729415534012249"><ele>348.6666666666667</ele><time>2026-04-22T16:33:17.985Z</time></trkpt><trkpt lat="45.766880351033635" lon="8.729308045624641"><ele>350.0</ele><time>2026-04-22T16:33:20.986Z</time></trkpt><trkpt lat="45.76683562492736" lon="8.729214438803691"><ele>346.6666666666667</ele><time>2026-04-22T16:33:22.985Z</time></trkpt><trkpt lat="45.76680036761577" lon="8.729121005737566"><ele>343.33333333333337</ele><time>2026-04-22T16:33:24.985Z</time></trkpt><trkpt lat="45.76677052706911" lon="8.729021126659283"><ele>340.0</ele><time>2026-04-22T16:33:26.985Z</time></trkpt><trkpt lat="45.76673517861758" lon="8.728921838586055"><ele>336.6666666666667</ele><time>2026-04-22T16:33:29.985Z</time></trkpt><trkpt lat="45.76670109809043" lon="8.728817970360971"><ele>333.3333333333333</ele><time>2026-04-22T16:33:32.985Z</time></trkpt><trkpt lat="45.766640904189664" lon="8.728743110130642"><ele>330.0</ele><time>2026-04-22T16:33:57.985Z</time></trkpt><trkpt lat="45.76658823691941" lon="8.728689797868578"><ele>330.00000000000006</ele><time>2026-04-22T16:34:00.985Z</time></trkpt><trkpt lat="45.76653454908499" lon="8.728626201598296"><ele>330.0</ele><time>2026-04-22T16:34:03.985Z</time></trkpt><trkpt lat="45.76646393902203" lon="8.72855874277702"><ele>330.0</ele><time>2026-04-22T16:34:07.985Z</time></trkpt><trkpt lat="45.76641218538112" lon="8.72849829020475"><ele>330.0</ele><time>2026-04-22T16:34:11.985Z</time></trkpt><trkpt lat="45.76636403635586" lon="8.728417491333568"><ele>330.0</ele><time>2026-04-22T16:34:15.985Z</time></trkpt><trkpt lat="45.76634331994337" lon="8.72832728824203"><ele>330.00000000000006</ele><time>2026-04-22T16:34:18.985Z</time></trkpt><trkpt lat="45.766359741105056" lon="8.728224117231827"><ele>330.0</ele><time>2026-04-22T16:34:22.985Z</time></trkpt><trkpt lat="45.76637830127915" lon="8.728117755274871"><ele>329.6666666666667</ele><time>2026-04-22T16:34:27.985Z</time></trkpt><trkpt lat="45.76638440549262" lon="8.728008722911143"><ele>329.3333333333333</ele><time>2026-04-22T16:34:31.985Z</time></trkpt><trkpt lat="45.76638312035424" lon="8.727898853908808"><ele>329.0</ele><time>2026-04-22T16:34:35.985Z</time></trkpt><trkpt lat="45.766404196827345" lon="8.72779496234148"><ele>328.66666666666663</ele><time>2026-04-22T16:34:38.985Z</time></trkpt><trkpt lat="45.76637725101883" lon="8.727658444175553"><ele>328.3333333333333</ele><time>2026-04-22T16:34:43.985Z</time></trkpt><trkpt lat="45.76634014101967" lon="8.727582695622687"><ele>328.0</ele><time>2026-04-22T16:34:46.985Z</time></trkpt><trkpt lat="45.76632912476812" lon="8.727685745356634"><ele>328.85714285714283</ele><time>2026-04-22T16:35:30.985Z</time></trkpt><trkpt lat="45.76632130817504" lon="8.727780947884481"><ele>329.7142857142857</ele><time>2026-04-22T16:35:38.985Z</time></trkpt><trkpt lat="45.76632647321817" lon="8.72787443364344"><ele>330.57142857142856</ele><time>2026-04-22T16:35:46.985Z</time></trkpt><trkpt lat="45.76632590002634" lon="8.727966103664274"><ele>331.42857142857144</ele><time>2026-04-22T16:35:54.985Z</time></trkpt><trkpt lat="45.76632502008833" lon="8.728058814872535"><ele>332.2857142857143</ele><time>2026-04-22T16:36:04.985Z</time></trkpt><trkpt lat="45.76630048068141" lon="8.72814902513599"><ele>333.1428571428571</ele><time>2026-04-22T16:36:12.985Z</time></trkpt><trkpt lat="45.76628988600081" lon="8.72823888935342"><ele>334.0</ele><time>2026-04-22T16:36:19.985Z</time></trkpt><trkpt lat="45.766307690429144" lon="8.728330139516432"><ele>334.0</ele><time>2026-04-22T16:36:26.985Z</time></trkpt><trkpt lat="45.76633864531516" lon="8.728413477687331"><ele>334.0</ele><time>2026-04-22T16:36:34.985Z</time></trkpt><trkpt lat="45.766371922991816" lon="8.728491105092097"><ele>334.0</ele><time>2026-04-22T16:36:41.985Z</time></trkpt><trkpt lat="45.76643124550456" lon="8.728540365748284"><ele>334.0</ele><time>2026-04-22T16:36:49.985Z</time></trkpt><trkpt lat="45.76648540306544" lon="8.728595150623466"><ele>334.0</ele><time>2026-04-22T16:36:58.985Z</time></trkpt><trkpt lat="45.76654037452701" lon="8.728645413808188"><ele>334.0</ele><time>2026-04-22T16:37:05.984Z</time></trkpt><trkpt lat="45.76659242502109" lon="8.72870503520135"><ele>334.0</ele><time>2026-04-22T16:37:11.984Z</time></trkpt><trkpt lat="45.7666460282331" lon="8.7287541027973"><ele>334.0</ele><time>2026-04-22T16:37:19.984Z</time></trkpt><trkpt lat="45.76662936592744" lon="8.728659454477429"><ele>334.0</ele><time>2026-04-22T16:37:45.985Z</time></trkpt><trkpt lat="45.76659971550308" lon="8.7285733602087"><ele>334.0</ele><time>2026-04-22T16:37:50.985Z</time></trkpt><trkpt lat="45.76658980675937" lon="8.72847671229373"><ele>334.0</ele><time>2026-04-22T16:37:55.985Z</time></trkpt><trkpt lat="45.76659804121604" lon="8.72837482251542"><ele>334.0</ele><time>2026-04-22T16:38:02.985Z</time></trkpt><trkpt lat="45.76663463548564" lon="8.728300355928042"><ele>334.0</ele><time>2026-04-22T16:38:09.985Z</time></trkpt><trkpt lat="45.76667329484374" lon="8.7283889520936"><ele>334.0</ele><time>2026-04-22T16:38:19.985Z</time></trkpt><trkpt lat="45.76679886392818" lon="8.728385365518905"><ele>334.0</ele><time>2026-04-22T16:38:46.985Z</time></trkpt><trkpt lat="45.76681364044616" lon="8.728288035685102"><ele>334.0</ele><time>2026-04-22T16:39:57.986Z</time></trkpt><trkpt lat="45.76682869410894" lon="8.728198933303815"><ele>334.0</ele><time>2026-04-22T16:40:10.986Z</time></trkpt><trkpt lat="45.76686574338215" lon="8.72811621257495"><ele>334.0</ele><time>2026-04-22T16:40:14.986Z</time></trkpt><trkpt lat="45.76691523251337" lon="8.72803676178031"><ele>334.0</ele><time>2026-04-22T16:40:20.986Z</time></trkpt><trkpt lat="45.766973457744" lon="8.727984902863687"><ele>334.0</ele><time>2026-04-22T16:40:28.986Z</time></trkpt><trkpt lat="45.76703218701781" lon="8.727928674853784"><ele>334.0</ele><time>2026-04-22T16:40:36.986Z</time></trkpt><trkpt lat="45.767095601742504" lon="8.727891552591126"><ele>336.2857142857143</ele><time>2026-04-22T16:40:54.986Z</time></trkpt><trkpt lat="45.767141592049235" lon="8.727828230627049"><ele>338.57142857142856</ele><time>2026-04-22T16:40:59.986Z</time></trkpt><trkpt lat="45.76720234529438" lon="8.727781484107334"><ele>340.8571428571429</ele><time>2026-04-22T16:41:05.986Z</time></trkpt><trkpt lat="45.767139157042706" lon="8.727811636484406"><ele>343.1428571428571</ele><time>2026-04-22T16:41:49.986Z</time></trkpt><trkpt lat="45.767088346787276" lon="8.727873531613847"><ele>345.42857142857144</ele><time>2026-04-22T16:41:56.987Z</time></trkpt><trkpt lat="45.76701890267975" lon="8.727914610291872"><ele>347.7142857142857</ele><time>2026-04-22T16:42:02.987Z</time></trkpt><trkpt lat="45.766966324072115" lon="8.727988427245728"><ele>350.0</ele><time>2026-04-22T16:42:10.986Z</time></trkpt><trkpt lat="45.76691536940859" lon="8.728047735121473"><ele>350.0</ele><time>2026-04-22T16:42:17.986Z</time></trkpt><trkpt lat="45.76687151946702" lon="8.728113877008862"><ele>350.0</ele><time>2026-04-22T16:42:23.986Z</time></trkpt><trkpt lat="45.76682992531935" lon="8.728193912245542"><ele>350.0</ele><time>2026-04-22T16:42:28.986Z</time></trkpt><trkpt lat="45.76678968324811" lon="8.728265086974"><ele>350.0</ele><time>2026-04-22T16:42:34.986Z</time></trkpt><trkpt lat="45.76677640130954" lon="8.728356973330154"><ele>350.0</ele><time>2026-04-22T16:42:40.986Z</time></trkpt><trkpt lat="45.7668314823506" lon="8.728415681644147"><ele>350.0</ele><time>2026-04-22T16:42:51.986Z</time></trkpt><trkpt lat="45.76689729244823" lon="8.728402966222578"><ele>350.0</ele><time>2026-04-22T16:43:00.986Z</time></trkpt><trkpt lat="45.7669681071535" lon="8.728378057716075"><ele>350.0</ele><time>2026-04-22T16:43:09.986Z</time></trkpt><trkpt lat="45.76703896169066" lon="8.728357085062708"><ele>350.0</ele><time>2026-04-22T16:43:16.986Z</time></trkpt><trkpt lat="45.767136517208385" lon="8.728282261863562"><ele>350.0</ele><time>2026-04-22T16:45:41.984Z</time></trkpt><trkpt lat="45.76720105264334" lon="8.728245575461708"><ele>350.0</ele><time>2026-04-22T16:45:46.984Z</time></trkpt><trkpt lat="45.76726849785326" lon="8.728201222270512"><ele>350.0</ele><time>2026-04-22T16:45:51.985Z</time></trkpt><trkpt lat="45.767325069156534" lon="8.728160099398997"><ele>350.0</ele><time>2026-04-22T16:45:56.985Z</time></trkpt><trkpt lat="45.767390495611814" lon="8.728106693198171"><ele>350.0</ele><time>2026-04-22T16:46:02.985Z</time></trkpt><trkpt lat="45.76744863019983" lon="8.728065417307802"><ele>350.0</ele><time>2026-04-22T16:46:18.985Z</time></trkpt><trkpt lat="45.76749062454946" lon="8.727989803066285"><ele>350.0</ele><time>2026-04-22T16:46:24.985Z</time></trkpt><trkpt lat="45.76753174287307" lon="8.72791627463861"><ele>350.0</ele><time>2026-04-22T16:46:30.985Z</time></trkpt><trkpt lat="45.76757694546137" lon="8.727840188733362"><ele>350.0</ele><time>2026-04-22T16:46:36.985Z</time></trkpt><trkpt lat="45.76763864381092" lon="8.727797157721522"><ele>350.0</ele><time>2026-04-22T16:46:42.985Z</time></trkpt><trkpt lat="45.76770696919874" lon="8.727760281622137"><ele>350.0</ele><time>2026-04-22T16:46:49.985Z</time></trkpt><trkpt lat="45.76777144772466" lon="8.727730818610667"><ele>352.2857142857143</ele><time>2026-04-22T16:46:55.984Z</time></trkpt><trkpt lat="45.76783762347908" lon="8.727694891596018"><ele>354.57142857142856</ele><time>2026-04-22T16:47:03.984Z</time></trkpt><trkpt lat="45.76790628297839" lon="8.727665437348616"><ele>356.8571428571429</ele><time>2026-04-22T16:47:08.984Z</time></trkpt><trkpt lat="45.767971847640375" lon="8.72764862727287"><ele>359.1428571428571</ele><time>2026-04-22T16:47:27.984Z</time></trkpt><trkpt lat="45.768035480652514" lon="8.727637714117323"><ele>361.42857142857144</ele><time>2026-04-22T16:47:32.984Z</time></trkpt><trkpt lat="45.7680987420112" lon="8.727625654516117"><ele>363.7142857142857</ele><time>2026-04-22T16:47:36.984Z</time></trkpt><trkpt lat="45.768176700932706" lon="8.72762191300047"><ele>366.0</ele><time>2026-04-22T16:47:41.984Z</time></trkpt><trkpt lat="45.76824338374615" lon="8.72765866881453"><ele>366.0</ele><time>2026-04-22T16:47:47.984Z</time></trkpt><trkpt lat="45.76831416499947" lon="8.727698811070765"><ele>366.0</ele><time>2026-04-22T16:47:59.986Z</time></trkpt><trkpt lat="45.76838057707803" lon="8.727726343735874"><ele>366.0</ele><time>2026-04-22T16:48:09.986Z</time></trkpt><trkpt lat="45.7684431417605" lon="8.727762923775144"><ele>366.0</ele><time>2026-04-22T16:48:15.986Z</time></trkpt><trkpt lat="45.768496308434784" lon="8.72781853144022"><ele>366.0</ele><time>2026-04-22T16:48:21.986Z</time></trkpt><trkpt lat="45.7685568923432" lon="8.727845470303397"><ele>366.0</ele><time>2026-04-22T16:48:28.986Z</time></trkpt><trkpt lat="45.76861672082518" lon="8.727891000465094"><ele>366.0</ele><time>2026-04-22T16:50:14.986Z</time></trkpt><trkpt lat="45.76868209762743" lon="8.727918306703291"><ele>367.0</ele><time>2026-04-22T16:50:19.986Z</time></trkpt><trkpt lat="45.76876179807113" lon="8.727956607921545"><ele>368.0</ele><time>2026-04-22T16:50:24.986Z</time></trkpt><trkpt lat="45.76882490237012" lon="8.728000491812196"><ele>369.0</ele><time>2026-04-22T16:50:28.986Z</time></trkpt><trkpt lat="45.7688761287015" lon="8.727929381790284"><ele>370.0</ele><time>2026-04-22T16:50:36.986Z</time></trkpt><trkpt lat="45.768892731688915" lon="8.727825092902602"><ele>371.0</ele><time>2026-04-22T16:50:39.986Z</time></trkpt><trkpt lat="45.768935295664996" lon="8.727736069063628"><ele>372.0</ele><time>2026-04-22T16:50:42.986Z</time></trkpt><trkpt lat="45.76897688469533" lon="8.727655013605045"><ele>373.0</ele><time>2026-04-22T16:50:45.986Z</time></trkpt><trkpt lat="45.76902032705932" lon="8.727582679264133"><ele>373.16666666666663</ele><time>2026-04-22T16:50:48.986Z</time></trkpt><trkpt lat="45.76906840382036" lon="8.727515258075966"><ele>373.3333333333333</ele><time>2026-04-22T16:50:51.986Z</time></trkpt><trkpt lat="45.769130455412046" lon="8.727423366424553"><ele>373.5</ele><time>2026-04-22T16:50:55.986Z</time></trkpt><trkpt lat="45.76916578420798" lon="8.727335602853076"><ele>373.6666666666667</ele><time>2026-04-22T16:50:58.986Z</time></trkpt><trkpt lat="45.769209937546385" lon="8.727248221858181"><ele>373.83333333333337</ele><time>2026-04-22T16:51:01.986Z</time></trkpt><trkpt lat="45.76925315523786" lon="8.72716715102304"><ele>374.0</ele><time>2026-04-22T16:51:04.985Z</time></trkpt><trkpt lat="45.76928596552229" lon="8.727068753389538"><ele>374.0</ele><time>2026-04-22T16:51:08.985Z</time></trkpt><trkpt lat="45.769306950569224" lon="8.726972157987007"><ele>374.0</ele><time>2026-04-22T16:51:11.985Z</time></trkpt><trkpt lat="45.769314552385694" lon="8.726875015199983"><ele>374.0</ele><time>2026-04-22T16:51:14.985Z</time></trkpt><trkpt lat="45.7693343586564" lon="8.726774675677895"><ele>374.0</ele><time>2026-04-22T16:51:18.985Z</time></trkpt><trkpt lat="45.769345133886226" lon="8.726669943147968"><ele>374.0</ele><time>2026-04-22T16:51:22.985Z</time></trkpt><trkpt lat="45.769326101847305" lon="8.726572550753591"><ele>374.0</ele><time>2026-04-22T16:51:25.985Z</time></trkpt><trkpt lat="45.769336934306196" lon="8.72645411654306"><ele>374.0</ele><time>2026-04-22T16:51:30.985Z</time></trkpt><trkpt lat="45.76936539253251" lon="8.726354013715145"><ele>375.6</ele><time>2026-04-22T16:51:33.985Z</time></trkpt><trkpt lat="45.76938718193399" lon="8.726238641439046"><ele>377.2</ele><time>2026-04-22T16:51:37.985Z</time></trkpt><trkpt lat="45.76942288749682" lon="8.726148593222035"><ele>378.8</ele><time>2026-04-22T16:51:41.985Z</time></trkpt><trkpt lat="45.76948686276277" lon="8.726085792454493"><ele>380.40000000000003</ele><time>2026-04-22T16:52:09.986Z</time></trkpt><trkpt lat="45.76956501580326" lon="8.72601191935484"><ele>382.0</ele><time>2026-04-22T16:52:17.987Z</time></trkpt><trkpt lat="45.76975249164589" lon="8.726015892100722"><ele>382.5</ele><time>2026-04-22T16:52:30.985Z</time></trkpt><trkpt lat="45.769840844284" lon="8.725914799560282"><ele>383.0</ele><time>2026-04-22T16:52:49.985Z</time></trkpt><trkpt lat="45.769880959624224" lon="8.725842100104131"><ele>383.5</ele><time>2026-04-22T16:52:53.985Z</time></trkpt><trkpt lat="45.76992975731521" lon="8.72574598651103"><ele>384.0</ele><time>2026-04-22T16:52:57.985Z</time></trkpt><trkpt lat="45.769984368156265" lon="8.72566433523618"><ele>384.50000000000006</ele><time>2026-04-22T16:52:59.985Z</time></trkpt><trkpt lat="45.77005085587071" lon="8.725591568265099"><ele>385.0</ele><time>2026-04-22T16:53:01.985Z</time></trkpt><trkpt lat="45.77010987310876" lon="8.725502538131437"><ele>385.0</ele><time>2026-04-22T16:53:04.985Z</time></trkpt><trkpt lat="45.770173759788406" lon="8.725418381257093"><ele>385.0</ele><time>2026-04-22T16:53:07.985Z</time></trkpt><trkpt lat="45.770229988817476" lon="8.725328793498917"><ele>385.0</ele><time>2026-04-22T16:53:10.985Z</time></trkpt><trkpt lat="45.77028146187404" lon="8.72525241907403"><ele>385.0</ele><time>2026-04-22T16:53:13.985Z</time></trkpt><trkpt lat="45.77032662188706" lon="8.725178698544445"><ele>385.0</ele><time>2026-04-22T16:53:17.985Z</time></trkpt><trkpt lat="45.77039026786809" lon="8.725160599419475"><ele>385.0</ele><time>2026-04-22T16:53:24.985Z</time></trkpt><trkpt lat="45.77044654911163" lon="8.72521779215218"><ele>385.0</ele><time>2026-04-22T16:53:38.985Z</time></trkpt><trkpt lat="45.77061312294261" lon="8.725278266407432"><ele>384.50000000000006</ele><time>2026-04-22T16:53:47.985Z</time></trkpt><trkpt lat="45.77067456147771" lon="8.72530886010809"><ele>384.0</ele><time>2026-04-22T16:53:50.984Z</time></trkpt><trkpt lat="45.77075471945674" lon="8.725328455347249"><ele>383.5</ele><time>2026-04-22T16:53:54.984Z</time></trkpt><trkpt lat="45.77082333497347" lon="8.725321991585673"><ele>383.0</ele><time>2026-04-22T16:53:57.984Z</time></trkpt><trkpt lat="45.77089290399125" lon="8.725312139100952"><ele>382.5</ele><time>2026-04-22T16:54:00.984Z</time></trkpt><trkpt lat="45.77102673772039" lon="8.725312259923504"><ele>382.0</ele><time>2026-04-22T16:54:20.987Z</time></trkpt><trkpt lat="45.771116362265" lon="8.725265019004128"><ele>379.5</ele><time>2026-04-22T16:54:40.986Z</time></trkpt><trkpt lat="45.7711959539204" lon="8.725266422313057"><ele>377.0</ele><time>2026-04-22T16:54:47.986Z</time></trkpt><trkpt lat="45.771274298211935" lon="8.72529327536724"><ele>374.5</ele><time>2026-04-22T16:54:52.986Z</time></trkpt><trkpt lat="45.771348084780946" lon="8.725286288715056"><ele>372.0</ele><time>2026-04-22T16:55:04.985Z</time></trkpt><trkpt lat="45.7714148817219" lon="8.725323717164473"><ele>369.5</ele><time>2026-04-22T16:55:10.985Z</time></trkpt><trkpt lat="45.77147873940407" lon="8.725385308193667"><ele>367.0</ele><time>2026-04-22T16:55:15.985Z</time></trkpt><trkpt lat="45.771545700164424" lon="8.725411560095845"><ele>367.0</ele><time>2026-04-22T16:55:20.985Z</time></trkpt><trkpt lat="45.77159756392646" lon="8.725476975929471"><ele>367.0</ele><time>2026-04-22T16:55:24.985Z</time></trkpt><trkpt lat="45.77165235057843" lon="8.725545283489286"><ele>367.0</ele><time>2026-04-22T16:55:27.985Z</time></trkpt><trkpt lat="45.771703026877574" lon="8.725632383593448"><ele>367.0</ele><time>2026-04-22T16:55:30.985Z</time></trkpt><trkpt lat="45.771763490090436" lon="8.725680872821176"><ele>367.0</ele><time>2026-04-22T16:55:33.985Z</time></trkpt><trkpt lat="45.771822873274964" lon="8.725748431727457"><ele>367.0</ele><time>2026-04-22T16:55:37.985Z</time></trkpt><trkpt lat="45.77185544126218" lon="8.725838496949404"><ele>367.0</ele><time>2026-04-22T16:55:41.985Z</time></trkpt><trkpt lat="45.77192151558542" lon="8.72590878519155"><ele>363.57142857142856</ele><time>2026-04-22T16:55:47.985Z</time></trkpt><trkpt lat="45.77195902038079" lon="8.725995476735985"><ele>360.14285714285717</ele><time>2026-04-22T16:55:51.985Z</time></trkpt><trkpt lat="45.7720018444445" lon="8.726068865412408"><ele>356.7142857142857</ele><time>2026-04-22T16:55:55.985Z</time></trkpt><trkpt lat="45.77204462924857" lon="8.726141718597813"><ele>353.2857142857143</ele><time>2026-04-22T16:55:59.985Z</time></trkpt><trkpt lat="45.77208437510785" lon="8.72622358416521"><ele>349.8571428571429</ele><time>2026-04-22T16:56:02.985Z</time></trkpt><trkpt lat="45.77214131169909" lon="8.726274897400051"><ele>346.42857142857144</ele><time>2026-04-22T16:56:06.985Z</time></trkpt><trkpt lat="45.77219023213397" lon="8.72633401220867"><ele>343.0</ele><time>2026-04-22T16:56:11.985Z</time></trkpt><trkpt lat="45.77225681637277" lon="8.726414451378655"><ele>343.0</ele><time>2026-04-22T16:56:16.985Z</time></trkpt><trkpt lat="45.77228702866884" lon="8.726503369644123"><ele>343.0</ele><time>2026-04-22T16:56:23.986Z</time></trkpt><trkpt lat="45.772333019342824" lon="8.72657368532812"><ele>343.0</ele><time>2026-04-22T16:56:29.986Z</time></trkpt><trkpt lat="45.772379987259214" lon="8.726644773556984"><ele>343.0</ele><time>2026-04-22T16:56:33.987Z</time></trkpt><trkpt lat="45.77243676028522" lon="8.726725110853534"><ele>343.0</ele><time>2026-04-22T16:56:37.986Z</time></trkpt><trkpt lat="45.77249301553339" lon="8.726794331901665"><ele>343.0</ele><time>2026-04-22T16:56:40.986Z</time></trkpt><trkpt lat="45.77253851743847" lon="8.726868843078881"><ele>343.0</ele><time>2026-04-22T16:56:44.986Z</time></trkpt><trkpt lat="45.77259706415025" lon="8.726932681424431"><ele>344.57142857142856</ele><time>2026-04-22T16:56:48.986Z</time></trkpt><trkpt lat="45.77265631930874" lon="8.727007695061893"><ele>346.1428571428571</ele><time>2026-04-22T16:56:52.986Z</time></trkpt><trkpt lat="45.772704764759546" lon="8.727069924619308"><ele>347.7142857142857</ele><time>2026-04-22T16:56:55.986Z</time></trkpt><trkpt lat="45.77275543768977" lon="8.727134166901191"><ele>349.2857142857143</ele><time>2026-04-22T16:56:57.986Z</time></trkpt><trkpt lat="45.772813484691746" lon="8.727208197991454"><ele>350.85714285714283</ele><time>2026-04-22T16:57:02.986Z</time></trkpt><trkpt lat="45.77286623609215" lon="8.727282468051241"><ele>352.42857142857144</ele><time>2026-04-22T16:57:05.986Z</time></trkpt><trkpt lat="45.77292425754593" lon="8.727342760956347"><ele>354.0</ele><time>2026-04-22T16:57:11.986Z</time></trkpt><trkpt lat="45.77297040628711" lon="8.72740843187751"><ele>351.5</ele><time>2026-04-22T16:57:14.986Z</time></trkpt><trkpt lat="45.77302563699008" lon="8.727502578534606"><ele>349.0</ele><time>2026-04-22T16:57:20.986Z</time></trkpt><trkpt lat="45.773077931526146" lon="8.727583891917906"><ele>346.5</ele><time>2026-04-22T16:57:23.986Z</time></trkpt><trkpt lat="45.77312452308331" lon="8.727683274519569"><ele>344.0</ele><time>2026-04-22T16:57:26.986Z</time></trkpt><trkpt lat="45.77316803238529" lon="8.727759713144755"><ele>341.5</ele><time>2026-04-22T16:57:30.986Z</time></trkpt><trkpt lat="45.77320948077753" lon="8.727862184142815"><ele>339.0</ele><time>2026-04-22T16:57:33.986Z</time></trkpt><trkpt lat="45.77325722642556" lon="8.727947233848237"><ele>339.0</ele><time>2026-04-22T16:57:37.986Z</time></trkpt><trkpt lat="45.77331703660631" lon="8.728006886355105"><ele>339.0</ele><time>2026-04-22T16:57:41.986Z</time></trkpt><trkpt lat="45.77337542677171" lon="8.728065491507719"><ele>339.0</ele><time>2026-04-22T16:57:44.986Z</time></trkpt><trkpt lat="45.77343061619952" lon="8.728125285958168"><ele>339.0</ele><time>2026-04-22T16:57:47.986Z</time></trkpt><trkpt lat="45.77349726963955" lon="8.728173720909703"><ele>339.0</ele><time>2026-04-22T16:57:51.986Z</time></trkpt><trkpt lat="45.77355077871395" lon="8.72824481000095"><ele>339.0</ele><time>2026-04-22T16:57:54.986Z</time></trkpt><trkpt lat="45.77358636249509" lon="8.72832056084953"><ele>339.0</ele><time>2026-04-22T16:57:59.986Z</time></trkpt><trkpt lat="45.77364153029733" lon="8.728374584841172"><ele>337.8333333333333</ele><time>2026-04-22T16:59:08.987Z</time></trkpt><trkpt lat="45.77369775406459" lon="8.728421622799926"><ele>336.6666666666667</ele><time>2026-04-22T16:59:12.986Z</time></trkpt><trkpt lat="45.773761917280986" lon="8.728492463562095"><ele>335.5</ele><time>2026-04-22T16:59:16.986Z</time></trkpt><trkpt lat="45.77381778969549" lon="8.728560749795292"><ele>334.33333333333337</ele><time>2026-04-22T16:59:19.986Z</time></trkpt><trkpt lat="45.773886515316036" lon="8.728614176230817"><ele>333.1666666666667</ele><time>2026-04-22T16:59:24.986Z</time></trkpt><trkpt lat="45.77394768753099" lon="8.728694936967484"><ele>332.0</ele><time>2026-04-22T16:59:29.986Z</time></trkpt><trkpt lat="45.773989304804736" lon="8.72878748425273"><ele>332.0</ele><time>2026-04-22T16:59:32.986Z</time></trkpt><trkpt lat="45.77403372364503" lon="8.728857581191804"><ele>332.0</ele><time>2026-04-22T16:59:35.986Z</time></trkpt><trkpt lat="45.774091619251" lon="8.728942192867214"><ele>332.0</ele><time>2026-04-22T16:59:38.986Z</time></trkpt><trkpt lat="45.774161911784525" lon="8.729005284653931"><ele>332.0</ele><time>2026-04-22T16:59:42.986Z</time></trkpt><trkpt lat="45.77422628341917" lon="8.729065758697947"><ele>332.0</ele><time>2026-04-22T16:59:57.986Z</time></trkpt><trkpt lat="45.77427386059127" lon="8.729141371120814"><ele>332.0</ele><time>2026-04-22T17:00:01.986Z</time></trkpt><trkpt lat="45.77430533629491" lon="8.729222485918692"><ele>332.0</ele><time>2026-04-22T17:00:04.986Z</time></trkpt><trkpt lat="45.7743473234294" lon="8.729305028718457"><ele>329.0</ele><time>2026-04-22T17:00:06.986Z</time></trkpt><trkpt lat="45.77439604326053" lon="8.729390363637112"><ele>326.0</ele><time>2026-04-22T17:00:09.986Z</time></trkpt><trkpt lat="45.77444637131128" lon="8.729469548325715"><ele>323.0</ele><time>2026-04-22T17:00:12.986Z</time></trkpt><trkpt lat="45.77449097895491" lon="8.729562884317797"><ele>320.0</ele><time>2026-04-22T17:00:15.986Z</time></trkpt><trkpt lat="45.774550981538894" lon="8.72964542392482"><ele>317.0</ele><time>2026-04-22T17:00:18.986Z</time></trkpt><trkpt lat="45.7745908269929" lon="8.72971934562638"><ele>314.0</ele><time>2026-04-22T17:00:21.986Z</time></trkpt><trkpt lat="45.77465379772115" lon="8.72980106733791"><ele>314.0</ele><time>2026-04-22T17:00:24.986Z</time></trkpt><trkpt lat="45.77471994845936" lon="8.72990936627207"><ele>314.0</ele><time>2026-04-22T17:00:27.986Z</time></trkpt><trkpt lat="45.77477356265151" lon="8.73000800607287"><ele>314.0</ele><time>2026-04-22T17:00:30.986Z</time></trkpt><trkpt lat="45.7748186050525" lon="8.730092733141241"><ele>314.0</ele><time>2026-04-22T17:00:33.987Z</time></trkpt><trkpt lat="45.77485405069619" lon="8.730205226531533"><ele>314.0</ele><time>2026-04-22T17:00:36.987Z</time></trkpt><trkpt lat="45.77489875535325" lon="8.730282763915017"><ele>314.0</ele><time>2026-04-22T17:00:39.988Z</time></trkpt><trkpt lat="45.774935599878276" lon="8.730368089561171"><ele>315.6666666666667</ele><time>2026-04-22T17:00:42.987Z</time></trkpt><trkpt lat="45.77498118640239" lon="8.730444607014618"><ele>317.33333333333337</ele><time>2026-04-22T17:00:45.986Z</time></trkpt><trkpt lat="45.7750250681616" lon="8.730517142015144"><ele>319.0</ele><time>2026-04-22T17:00:48.986Z</time></trkpt><trkpt lat="45.77508189255837" lon="8.730618301622798"><ele>320.6666666666667</ele><time>2026-04-22T17:00:51.986Z</time></trkpt><trkpt lat="45.77513150076625" lon="8.73068371944612"><ele>322.3333333333333</ele><time>2026-04-22T17:00:53.986Z</time></trkpt><trkpt lat="45.77518935713202" lon="8.730780280624844"><ele>324.0</ele><time>2026-04-22T17:00:56.986Z</time></trkpt><trkpt lat="45.77524921264123" lon="8.73084346329311"><ele>322.0</ele><time>2026-04-22T17:00:59.986Z</time></trkpt><trkpt lat="45.77529740169085" lon="8.73090164914722"><ele>320.0</ele><time>2026-04-22T17:01:01.986Z</time></trkpt><trkpt lat="45.77535162660124" lon="8.73096697692946"><ele>318.0</ele><time>2026-04-22T17:01:04.986Z</time></trkpt><trkpt lat="45.775421939331146" lon="8.731036979198798"><ele>316.0</ele><time>2026-04-22T17:01:07.986Z</time></trkpt><trkpt lat="45.77549076903403" lon="8.731071038624327"><ele>314.0</ele><time>2026-04-22T17:01:10.986Z</time></trkpt><trkpt lat="45.77552949696832" lon="8.731143837335457"><ele>312.0</ele><time>2026-04-22T17:01:14.986Z</time></trkpt><trkpt lat="45.77557678158984" lon="8.731233411005492"><ele>310.0</ele><time>2026-04-22T17:01:18.986Z</time></trkpt><trkpt lat="45.77561564181885" lon="8.7313069893427"><ele>310.0</ele><time>2026-04-22T17:01:21.986Z</time></trkpt><trkpt lat="45.775646480912975" lon="8.731387133772255"><ele>310.0</ele><time>2026-04-22T17:01:24.986Z</time></trkpt><trkpt lat="45.775691145049045" lon="8.731475694231214"><ele>310.0</ele><time>2026-04-22T17:01:28.986Z</time></trkpt><trkpt lat="45.77572893554626" lon="8.731553525695352"><ele>310.0</ele><time>2026-04-22T17:01:33.986Z</time></trkpt><trkpt lat="45.77576388401338" lon="8.731677332462253"><ele>310.0</ele><time>2026-04-22T17:01:40.986Z</time></trkpt><trkpt lat="45.7758290736979" lon="8.731750656517072"><ele>310.0</ele><time>2026-04-22T17:01:42.986Z</time></trkpt><trkpt lat="45.775905985033006" lon="8.731779215558985"><ele>310.0</ele><time>2026-04-22T17:01:44.986Z</time></trkpt><trkpt lat="45.77599157903962" lon="8.731816594124473"><ele>310.0</ele><time>2026-04-22T17:01:47.986Z</time></trkpt><trkpt lat="45.77606866594747" lon="8.73185613470747"><ele>310.0</ele><time>2026-04-22T17:01:49.986Z</time></trkpt><trkpt lat="45.77614988042363" lon="8.731941304971365"><ele>310.0</ele><time>2026-04-22T17:01:51.986Z</time></trkpt><trkpt lat="45.77622293708146" lon="8.731980823443172"><ele>310.0</ele><time>2026-04-22T17:01:53.986Z</time></trkpt><trkpt lat="45.776295950179495" lon="8.732019506534424"><ele>310.0</ele><time>2026-04-22T17:01:55.986Z</time></trkpt><trkpt lat="45.776389601884894" lon="8.73198361084029"><ele>308.5</ele><time>2026-04-22T17:01:57.986Z</time></trkpt><trkpt lat="45.77648798748211" lon="8.731985466765073"><ele>307.0</ele><time>2026-04-22T17:01:59.985Z</time></trkpt><trkpt lat="45.77656890656077" lon="8.731987479392254"><ele>305.5</ele><time>2026-04-22T17:02:01.985Z</time></trkpt><trkpt lat="45.77662854432394" lon="8.73195817391553"><ele>304.0</ele><time>2026-04-22T17:02:03.985Z</time></trkpt><trkpt lat="45.776725617787235" lon="8.731994374186623"><ele>302.5</ele><time>2026-04-22T17:02:06.985Z</time></trkpt><trkpt lat="45.77680963631223" lon="8.732012480072786"><ele>301.0</ele><time>2026-04-22T17:02:09.985Z</time></trkpt><trkpt lat="45.77687623118095" lon="8.732050438222808"><ele>300.2857142857143</ele><time>2026-04-22T17:02:12.985Z</time></trkpt><trkpt lat="45.776951729012914" lon="8.732052725116734"><ele>299.57142857142856</ele><time>2026-04-22T17:02:16.985Z</time></trkpt><trkpt lat="45.77701791906607" lon="8.732106592511782"><ele>298.8571428571429</ele><time>2026-04-22T17:02:19.985Z</time></trkpt><trkpt lat="45.777071633649605" lon="8.732170718204294"><ele>298.1428571428571</ele><time>2026-04-22T17:02:23.985Z</time></trkpt><trkpt lat="45.77710892884059" lon="8.732254644758777"><ele>297.42857142857144</ele><time>2026-04-22T17:02:27.985Z</time></trkpt><trkpt lat="45.77711849142537" lon="8.732353717065688"><ele>296.7142857142857</ele><time>2026-04-22T17:02:30.985Z</time></trkpt><trkpt lat="45.777122855112474" lon="8.732465603127947"><ele>296.0</ele><time>2026-04-22T17:02:33.985Z</time></trkpt><trkpt lat="45.77712158311358" lon="8.732568259708138"><ele>296.0</ele><time>2026-04-22T17:02:36.985Z</time></trkpt><trkpt lat="45.77711021624018" lon="8.732678233707489"><ele>296.0</ele><time>2026-04-22T17:02:39.987Z</time></trkpt><trkpt lat="45.777109322435564" lon="8.732777944407289"><ele>296.0</ele><time>2026-04-22T17:02:42.987Z</time></trkpt><trkpt lat="45.77708552320415" lon="8.732891619486228"><ele>296.0</ele><time>2026-04-22T17:02:45.987Z</time></trkpt><trkpt lat="45.77708043879683" lon="8.733005798775713"><ele>296.0</ele><time>2026-04-22T17:02:48.987Z</time></trkpt><trkpt lat="45.7770871796943" lon="8.73312803193105"><ele>296.0</ele><time>2026-04-22T17:02:51.987Z</time></trkpt><trkpt lat="45.77712051634013" lon="8.733250264175654"><ele>296.0</ele><time>2026-04-22T17:02:54.987Z</time></trkpt><trkpt lat="45.77715088152388" lon="8.733332491224129"><ele>296.0</ele><time>2026-04-22T17:02:56.986Z</time></trkpt><trkpt lat="45.77717589556334" lon="8.733451271000174"><ele>296.0</ele><time>2026-04-22T17:02:59.986Z</time></trkpt><trkpt lat="45.777217288982456" lon="8.73354404386411"><ele>296.0</ele><time>2026-04-22T17:03:02.986Z</time></trkpt><trkpt lat="45.7772600694939" lon="8.733664117857726"><ele>296.0</ele><time>2026-04-22T17:03:05.986Z</time></trkpt><trkpt lat="45.777290216576176" lon="8.733746599825594"><ele>296.0</ele><time>2026-04-22T17:03:07.986Z</time></trkpt><trkpt lat="45.77732354480042" lon="8.733831432456894"><ele>296.6666666666667</ele><time>2026-04-22T17:03:09.986Z</time></trkpt><trkpt lat="45.777382872768484" lon="8.733947515753167"><ele>297.33333333333337</ele><time>2026-04-22T17:03:12.986Z</time></trkpt><trkpt lat="45.777418936608875" lon="8.73403391774288"><ele>298.0</ele><time>2026-04-22T17:03:14.986Z</time></trkpt><trkpt lat="45.777452183984806" lon="8.734129015877864"><ele>298.6666666666667</ele><time>2026-04-22T17:03:16.986Z</time></trkpt><trkpt lat="45.77750579337198" lon="8.734221214733815"><ele>299.3333333333333</ele><time>2026-04-22T17:03:18.986Z</time></trkpt><trkpt lat="45.777542079818886" lon="8.734308578337345"><ele>300.0</ele><time>2026-04-22T17:03:20.986Z</time></trkpt><trkpt lat="45.77759330813214" lon="8.734362217069215"><ele>300.0</ele><time>2026-04-22T17:03:22.986Z</time></trkpt><trkpt lat="45.77765388584091" lon="8.73445313757801"><ele>300.0</ele><time>2026-04-22T17:03:25.986Z</time></trkpt><trkpt lat="45.777692275960796" lon="8.734544895933992"><ele>300.0</ele><time>2026-04-22T17:03:27.986Z</time></trkpt><trkpt lat="45.777762634274254" lon="8.734637485050484"><ele>300.0</ele><time>2026-04-22T17:03:30.986Z</time></trkpt><trkpt lat="45.77783225368092" lon="8.734748208290362"><ele>300.0</ele><time>2026-04-22T17:03:33.986Z</time></trkpt><trkpt lat="45.77787621886125" lon="8.734823828946473"><ele>300.0</ele><time>2026-04-22T17:03:35.986Z</time></trkpt><trkpt lat="45.77789944070372" lon="8.734927039292176"><ele>300.0</ele><time>2026-04-22T17:03:37.986Z</time></trkpt><trkpt lat="45.7779216938952" lon="8.735017309807025"><ele>300.0</ele><time>2026-04-22T17:03:39.986Z</time></trkpt><trkpt lat="45.777959149038274" lon="8.735091447718467"><ele>300.0</ele><time>2026-04-22T17:03:41.986Z</time></trkpt><trkpt lat="45.77798613505585" lon="8.735204715456218"><ele>300.0</ele><time>2026-04-22T17:03:44.986Z</time></trkpt><trkpt lat="45.778027266963086" lon="8.735330102481495"><ele>300.0</ele><time>2026-04-22T17:03:47.986Z</time></trkpt><trkpt lat="45.778076282853895" lon="8.735426390674032"><ele>300.0</ele><time>2026-04-22T17:03:50.986Z</time></trkpt><trkpt lat="45.778134808690275" lon="8.735525399323343"><ele>303.0</ele><time>2026-04-22T17:03:53.985Z</time></trkpt><trkpt lat="45.7781885249875" lon="8.735601294513149"><ele>303.0</ele><time>2026-04-22T17:03:56.984Z</time></trkpt><trkpt lat="45.7782444534537" lon="8.735672908105727"><ele>303.0</ele><time>2026-04-22T17:03:59.984Z</time></trkpt><trkpt lat="45.7783248945665" lon="8.735705954963857"><ele>303.0</ele><time>2026-04-22T17:04:02.983Z</time></trkpt><trkpt lat="45.77839853729436" lon="8.735679476306153"><ele>303.0</ele><time>2026-04-22T17:04:05.983Z</time></trkpt></trkseg></trk></gpx>